Observation data for JA Ranch on 06/20/2019      Previous  Date  Next       Current Mesonet Observations  Soil Data  Daily Summary Page  Observations in Plain Language
KPD3 200500Z 21004KT 18/17 A2983 RMK A01 T01840165  RH  089%=      5-min Rain = 0
KPD3 200501Z 22003KT 18/17 A2983 RMK A01 T01840165  RH  089%=      5-min Rain = 0
KPD3 200502Z 21003KT 19/17 A2983 RMK A01 T01850165  RH  089%=      5-min Rain = 0
KPD3 200503Z 20003KT 19/17 A2983 RMK A01 T01850165  RH  088%=      5-min Rain = 0
KPD3 200504Z 19003KT 19/17 A2983 RMK A01 T01850165  RH  088%=      5-min Rain = 0
KPD3 200505Z 18002KT 19/17 A2983 RMK A01 T01850165  RH  088%=      5-min Rain = 0
KPD3 200506Z 18002KT 19/17 A2983 RMK A01 T01850165  RH  088%=      5-min Rain = 0
KPD3 200507Z 18002KT 19/17 A2983 RMK A01 T01850165  RH  088%=      5-min Rain = 0
KPD3 200508Z 18002KT 19/17 A2983 RMK A01 T01850165  RH  088%=      5-min Rain = 0
KPD3 200509Z 18002KT 19/17 A2983 RMK A01 T01860166  RH  088%=      5-min Rain = 0
KPD3 200510Z 18002KT 19/17 A2983 RMK A01 T01870166  RH  088%=      5-min Rain = 0
KPD3 200511Z 18002KT 19/17 A2983 RMK A01 T01870166  RH  088%=      5-min Rain = 0
KPD3 200512Z 17002KT 19/17 A2983 RMK A01 T01870167  RH  088%=      5-min Rain = 0
KPD3 200513Z 17002KT 19/17 A2982 RMK A01 T01860167  RH  088%=      5-min Rain = 0
KPD3 200514Z 18002KT 19/17 A2982 RMK A01 T01860166  RH  089%=      5-min Rain = 0
KPD3 200515Z 19002KT 19/17 A2983 RMK A01 T01850166  RH  089%=      5-min Rain = 0
KPD3 200516Z 20003KT 19/17 A2983 RMK A01 T01850166  RH  089%=      5-min Rain = 0
KPD3 200517Z 20003KT 19/17 A2983 RMK A01 T01860167  RH  088%=      5-min Rain = 0
KPD3 200518Z 20003KT 19/17 A2983 RMK A01 T01870167  RH  088%=      5-min Rain = 0
KPD3 200519Z 20003KT 19/17 A2983 RMK A01 T01880167  RH  088%=      5-min Rain = 0
KPD3 200520Z 19003KT 19/17 A2983 RMK A01 T01890168  RH  087%=      5-min Rain = 0
KPD3 200521Z 19004KT 19/17 A2983 RMK A01 T01900167  RH  087%=      5-min Rain = 0
KPD3 200522Z 19003KT 19/17 A2983 RMK A01 T01900166  RH  086%=      5-min Rain = 0
KPD3 200523Z 20003KT 19/17 A2983 RMK A01 T01900166  RH  086%=      5-min Rain = 0
KPD3 200524Z 20004KT 19/17 A2983 RMK A01 T01900166  RH  086%=      5-min Rain = 0
KPD3 200525Z 20003KT 19/17 A2983 RMK A01 T01910166  RH  086%=      5-min Rain = 0
KPD3 200526Z 20003KT 19/17 A2983 RMK A01 T01900166  RH  086%=      5-min Rain = 0
KPD3 200527Z 20003KT 19/17 A2983 RMK A01 T01890166  RH  086%=      5-min Rain = 0
KPD3 200528Z 20004KT 19/17 A2983 RMK A01 T01890166  RH  087%=      5-min Rain = 0
KPD3 200529Z 19004KT 19/17 A2983 RMK A01 T01880166  RH  087%=      5-min Rain = 0
KPD3 200530Z 19004KT 19/17 A2983 RMK A01 T01890167  RH  087%=      5-min Rain = 0
KPD3 200531Z 20005KT 19/17 A2983 RMK A01 T01900166  RH  086%=      5-min Rain = 0
KPD3 200532Z 21005KT 19/17 A2983 RMK A01 T01900165  RH  085%=      5-min Rain = 0
KPD3 200533Z 21005KT 19/17 A2983 RMK A01 T01890165  RH  086%=      5-min Rain = 0
KPD3 200534Z 21005KT 19/17 A2983 RMK A01 T01880165  RH  087%=      5-min Rain = 0
KPD3 200535Z 21005KT 19/17 A2983 RMK A01 T01870166  RH  087%=      5-min Rain = 0
KPD3 200536Z 21005KT 19/17 A2983 RMK A01 T01870166  RH  088%=      5-min Rain = 0
KPD3 200537Z 21005KT 19/17 A2983 RMK A01 T01870166  RH  088%=      5-min Rain = 0
KPD3 200538Z 21005KT 19/17 A2983 RMK A01 T01860166  RH  088%=      5-min Rain = 0
KPD3 200539Z 21005KT 19/17 A2983 RMK A01 T01850166  RH  088%=      5-min Rain = 0
KPD3 200540Z 20004KT 19/17 A2983 RMK A01 T01850166  RH  088%=      5-min Rain = 0
KPD3 200541Z 20004KT 19/17 A2983 RMK A01 T01850166  RH  089%=      5-min Rain = 0
KPD3 200542Z 21004KT 19/17 A2983 RMK A01 T01850167  RH  089%=      5-min Rain = 0
KPD3 200543Z 21004KT 19/17 A2983 RMK A01 T01860167  RH  089%=      5-min Rain = 0
KPD3 200544Z 21004KT 19/17 A2983 RMK A01 T01860167  RH  089%=      5-min Rain = 0
KPD3 200545Z 21004KT 19/17 A2983 RMK A01 T01860167  RH  089%=      5-min Rain = 0
KPD3 200546Z 20003KT 19/17 A2983 RMK A01 T01860167  RH  089%=      5-min Rain = 0
KPD3 200547Z 21003KT 19/17 A2983 RMK A01 T01860167  RH  089%=      5-min Rain = 0
KPD3 200548Z 21003KT 19/17 A2983 RMK A01 T01850168  RH  089%=      5-min Rain = 0
KPD3 200549Z 21003KT 19/17 A2983 RMK A01 T01850167  RH  089%=      5-min Rain = 0
KPD3 200550Z 21003KT 19/17 A2983 RMK A01 T01850168  RH  089%=      5-min Rain = 0
KPD3 200551Z 21003KT 19/17 A2983 RMK A01 T01850167  RH  089%=      5-min Rain = 0
KPD3 200552Z 22002KT 19/17 A2982 RMK A01 T01850167  RH  089%=      5-min Rain = 0
KPD3 200553Z 22002KT 19/17 A2982 RMK A01 T01850167  RH  089%=      5-min Rain = 0
KPD3 200554Z 22003KT 19/17 A2982 RMK A01 T01850167  RH  089%=      5-min Rain = 0
KPD3 200555Z 22003KT 19/17 A2982 RMK A01 T01850167  RH  089%=      5-min Rain = 0
KPD3 200556Z 22002KT 19/17 A2982 RMK A01 T01850167  RH  090%=      5-min Rain = 0
KPD3 200557Z 22002KT 18/17 A2982 RMK A01 T01840167  RH  090%=      5-min Rain = 0
KPD3 200558Z 21002KT 18/17 A2982 RMK A01 T01840168  RH  090%=      5-min Rain = 0
KPD3 200559Z 22002KT 19/17 A2982 RMK A01 T01850168  RH  090%=      5-min Rain = 0
KPD3 200600Z 22001KT 19/17 A2982 RMK A01 T01850167  RH  089%=      5-min Rain = 0
KPD3 200601Z 23002KT 19/17 A2982 RMK A01 T01850167  RH  089%=      5-min Rain = 0
KPD3 200602Z 23001KT 18/17 A2982 RMK A01 T01840167  RH  090%=      5-min Rain = 0
KPD3 200603Z 23001KT 18/17 A2982 RMK A01 T01820166  RH  090%=      5-min Rain = 0
KPD3 200604Z 23001KT 18/17 A2982 RMK A01 T01820166  RH  090%=      5-min Rain = 0
KPD3 200605Z 21002KT 18/17 A2982 RMK A01 T01810165  RH  091%=      5-min Rain = 0
KPD3 200606Z 22002KT 18/17 A2982 RMK A01 T01810166  RH  091%=      5-min Rain = 0
KPD3 200607Z 21002KT 18/17 A2982 RMK A01 T01810166  RH  091%=      5-min Rain = 0
KPD3 200608Z 20001KT 18/17 A2982 RMK A01 T01810166  RH  091%=      5-min Rain = 0
KPD3 200609Z 21001KT 18/17 A2982 RMK A01 T01810166  RH  091%=      5-min Rain = 0
KPD3 200610Z 20000KT 18/17 A2982 RMK A01 T01810166  RH  091%=      5-min Rain = 0
KPD3 200611Z 20000KT 18/17 A2982 RMK A01 T01810165  RH  091%=      5-min Rain = 0
KPD3 200612Z 23000KT 18/17 A2982 RMK A01 T01810165  RH  090%=      5-min Rain = 0
KPD3 200613Z 22000KT 18/17 A2982 RMK A01 T01810165  RH  090%=      5-min Rain = 0
KPD3 200614Z 22000KT 18/16 A2982 RMK A01 T01810164  RH  090%=      5-min Rain = 0
KPD3 200615Z 00000KT 18/16 A2982 RMK A01 T01800164  RH  091%=      5-min Rain = 0
KPD3 200616Z 22000KT 18/16 A2982 RMK A01 T01800164  RH  090%=      5-min Rain = 0
KPD3 200617Z 22000KT 18/16 A2982 RMK A01 T01800164  RH  091%=      5-min Rain = 0
KPD3 200618Z 24001KT 18/16 A2982 RMK A01 T01790164  RH  091%=      5-min Rain = 0
KPD3 200619Z 25001KT 18/17 A2982 RMK A01 T01790165  RH  091%=      5-min Rain = 0
KPD3 200620Z 25001KT 18/17 A2982 RMK A01 T01790165  RH  091%=      5-min Rain = 0
KPD3 200621Z 24000KT 18/17 A2982 RMK A01 T01790165  RH  091%=      5-min Rain = 0
KPD3 200622Z 23000KT 18/17 A2982 RMK A01 T01790165  RH  091%=      5-min Rain = 0
KPD3 200623Z 23001KT 18/17 A2982 RMK A01 T01790165  RH  091%=      5-min Rain = 0
KPD3 200624Z 23001KT 18/17 A2982 RMK A01 T01790165  RH  091%=      5-min Rain = 0
KPD3 200625Z 24001KT 18/17 A2982 RMK A01 T01800165  RH  091%=      5-min Rain = 0
KPD3 200626Z 26001KT 18/17 A2982 RMK A01 T01800165  RH  091%=      5-min Rain = 0
KPD3 200627Z 26001KT 18/17 A2982 RMK A01 T01800165  RH  090%=      5-min Rain = 0
KPD3 200628Z 26001KT 18/17 A2982 RMK A01 T01810165  RH  090%=      5-min Rain = 0
KPD3 200629Z 25001KT 18/17 A2982 RMK A01 T01800165  RH  091%=      5-min Rain = 0
KPD3 200630Z 25001KT 18/17 A2982 RMK A01 T01810165  RH  091%=      5-min Rain = 0
KPD3 200631Z 26001KT 18/17 A2982 RMK A01 T01810165  RH  090%=      5-min Rain = 0
KPD3 200632Z 26001KT 18/16 A2982 RMK A01 T01810164  RH  090%=      5-min Rain = 0
KPD3 200633Z 27002KT 18/16 A2982 RMK A01 T01800164  RH  090%=      5-min Rain = 0
KPD3 200634Z 28001KT 18/17 A2982 RMK A01 T01800165  RH  091%=      5-min Rain = 0
KPD3 200635Z 27001KT 18/16 A2982 RMK A01 T01800164  RH  090%=      5-min Rain = 0
KPD3 200636Z 27002KT 18/16 A2982 RMK A01 T01800164  RH  090%=      5-min Rain = 0
KPD3 200637Z 27002KT 18/16 A2982 RMK A01 T01790164  RH  091%=      5-min Rain = 0
KPD3 200638Z 27001KT 18/16 A2982 RMK A01 T01790164  RH  091%=      5-min Rain = 0
KPD3 200639Z 26002KT 18/16 A2982 RMK A01 T01780164  RH  091%=      5-min Rain = 0
KPD3 200640Z 26001KT 18/17 A2982 RMK A01 T01790165  RH  092%=      5-min Rain = 0
KPD3 200641Z 26001KT 18/17 A2982 RMK A01 T01800165  RH  091%=      5-min Rain = 0
KPD3 200642Z 25001KT 18/17 A2982 RMK A01 T01810165  RH  090%=      5-min Rain = 0
KPD3 200643Z 25002KT 18/17 A2982 RMK A01 T01820165  RH  090%=      5-min Rain = 0
KPD3 200644Z 25002KT 18/17 A2982 RMK A01 T01830165  RH  089%=      5-min Rain = 0
KPD3 200645Z 25002KT 18/16 A2982 RMK A01 T01830164  RH  089%=      5-min Rain = 0
KPD3 200646Z 26002KT 18/17 A2982 RMK A01 T01830165  RH  089%=      5-min Rain = 0
KPD3 200647Z 27002KT 18/16 A2982 RMK A01 T01810164  RH  089%=      5-min Rain = 0
KPD3 200648Z 27002KT 18/16 A2982 RMK A01 T01800163  RH  090%=      5-min Rain = 0
KPD3 200649Z 27002KT 18/16 A2982 RMK A01 T01790162  RH  090%=      5-min Rain = 0
KPD3 200650Z 27002KT 18/16 A2982 RMK A01 T01770162  RH  091%=      5-min Rain = 0
KPD3 200651Z 27001KT 18/16 A2982 RMK A01 T01760162  RH  091%=      5-min Rain = 0
KPD3 200652Z 27001KT 18/16 A2982 RMK A01 T01760163  RH  092%=      5-min Rain = 0
KPD3 200653Z 27001KT 18/16 A2982 RMK A01 T01760163  RH  092%=      5-min Rain = 0
KPD3 200654Z 27001KT 18/16 A2982 RMK A01 T01750162  RH  092%=      5-min Rain = 0
KPD3 200655Z 28002KT 18/16 A2982 RMK A01 T01750162  RH  092%=      5-min Rain = 0
KPD3 200656Z 28001KT 17/16 A2982 RMK A01 T01740162  RH  092%=      5-min Rain = 0
KPD3 200657Z 28002KT 17/16 A2982 RMK A01 T01740162  RH  092%=      5-min Rain = 0
KPD3 200658Z 28002KT 17/16 A2982 RMK A01 T01740162  RH  092%=      5-min Rain = 0
KPD3 200659Z 28002KT 17/16 A2982 RMK A01 T01740162  RH  093%=      5-min Rain = 0
KPD3 200700Z 27002KT 17/16 A2982 RMK A01 T01740162  RH  092%=      5-min Rain = 0
KPD3 200701Z 26002KT 17/16 A2982 RMK A01 T01730161  RH  092%=      5-min Rain = 0
KPD3 200702Z 25002KT 17/16 A2982 RMK A01 T01730159  RH  092%=      5-min Rain = 0
KPD3 200703Z 24002KT 17/16 A2982 RMK A01 T01720158  RH  092%=      5-min Rain = 0
KPD3 200704Z 24002KT 17/16 A2982 RMK A01 T01700155  RH  091%=      5-min Rain = 0
KPD3 200705Z 24002KT 17/15 A2982 RMK A01 T01680154  RH  091%=      5-min Rain = 0
KPD3 200706Z 25002KT 17/15 A2982 RMK A01 T01670153  RH  091%=      5-min Rain = 0
KPD3 200707Z 24002KT 17/15 A2982 RMK A01 T01660153  RH  092%=      5-min Rain = 0
KPD3 200708Z 25002KT 17/15 A2982 RMK A01 T01650154  RH  093%=      5-min Rain = 0
KPD3 200709Z 25002KT 17/16 A2982 RMK A01 T01650156  RH  094%=      5-min Rain = 0
KPD3 200710Z 24002KT 17/16 A2982 RMK A01 T01660156  RH  094%=      5-min Rain = 0
KPD3 200711Z 24003KT 17/16 A2982 RMK A01 T01660157  RH  094%=      5-min Rain = 0
KPD3 200712Z 25003KT 17/16 A2982 RMK A01 T01660157  RH  094%=      5-min Rain = 0
KPD3 200713Z 24003KT 17/16 A2982 RMK A01 T01660157  RH  094%=      5-min Rain = 0
KPD3 200714Z 25003KT 17/16 A2982 RMK A01 T01660156  RH  094%=      5-min Rain = 0
KPD3 200715Z 25003KT 17/16 A2982 RMK A01 T01660156  RH  094%=      5-min Rain = 0
KPD3 200716Z 24002KT 17/16 A2982 RMK A01 T01660155  RH  093%=      5-min Rain = 0
KPD3 200717Z 24002KT 17/15 A2982 RMK A01 T01650154  RH  093%=      5-min Rain = 0
KPD3 200718Z 24002KT 17/16 A2982 RMK A01 T01650155  RH  093%=      5-min Rain = 0
KPD3 200719Z 25002KT 17/15 A2982 RMK A01 T01650154  RH  093%=      5-min Rain = 0
KPD3 200720Z 25002KT 16/15 A2982 RMK A01 T01640154  RH  093%=      5-min Rain = 0
KPD3 200721Z 25002KT 16/15 A2982 RMK A01 T01640153  RH  093%=      5-min Rain = 0
KPD3 200722Z 26002KT 16/15 A2982 RMK A01 T01640154  RH  094%=      5-min Rain = 0
KPD3 200723Z 26001KT 16/15 A2982 RMK A01 T01630154  RH  094%=      5-min Rain = 0
KPD3 200724Z 26001KT 16/15 A2982 RMK A01 T01630154  RH  094%=      5-min Rain = 0
KPD3 200725Z 27001KT 16/15 A2982 RMK A01 T01630153  RH  094%=      5-min Rain = 0
KPD3 200726Z 26002KT 16/15 A2982 RMK A01 T01630154  RH  094%=      5-min Rain = 0
KPD3 200727Z 26002KT 16/15 A2982 RMK A01 T01630154  RH  094%=      5-min Rain = 0
KPD3 200728Z 26002KT 16/15 A2982 RMK A01 T01620153  RH  094%=      5-min Rain = 0
KPD3 200729Z 27002KT 16/15 A2982 RMK A01 T01620153  RH  094%=      5-min Rain = 0
KPD3 200730Z 28002KT 16/15 A2982 RMK A01 T01620153  RH  095%=      5-min Rain = 0
KPD3 200731Z 28002KT 16/15 A2982 RMK A01 T01610153  RH  095%=      5-min Rain = 0
KPD3 200732Z 28002KT 16/15 A2982 RMK A01 T01610153  RH  095%=      5-min Rain = 0
KPD3 200733Z 28001KT 16/16 A2982 RMK A01 T01620155  RH  095%=      5-min Rain = 0
KPD3 200734Z 27001KT 16/16 A2982 RMK A01 T01630155  RH  095%=      5-min Rain = 0
KPD3 200735Z 26001KT 16/16 A2982 RMK A01 T01630155  RH  095%=      5-min Rain = 0
KPD3 200736Z 27001KT 16/16 A2982 RMK A01 T01630155  RH  095%=      5-min Rain = 0
KPD3 200737Z 27001KT 16/16 A2982 RMK A01 T01640155  RH  095%=      5-min Rain = 0
KPD3 200738Z 27001KT 16/16 A2982 RMK A01 T01640155  RH  094%=      5-min Rain = 0
KPD3 200739Z 28002KT 16/16 A2982 RMK A01 T01640155  RH  094%=      5-min Rain = 0
KPD3 200740Z 28002KT 16/16 A2982 RMK A01 T01640155  RH  094%=      5-min Rain = 0
KPD3 200741Z 29002KT 16/15 A2982 RMK A01 T01640154  RH  094%=      5-min Rain = 0
KPD3 200742Z 29002KT 16/15 A2982 RMK A01 T01630154  RH  094%=      5-min Rain = 0
KPD3 200743Z 29001KT 16/15 A2982 RMK A01 T01630154  RH  094%=      5-min Rain = 0
KPD3 200744Z 29001KT 16/15 A2982 RMK A01 T01630154  RH  094%=      5-min Rain = 0
KPD3 200745Z 29001KT 16/15 A2982 RMK A01 T01630154  RH  094%=      5-min Rain = 0
KPD3 200746Z 29001KT 16/15 A2982 RMK A01 T01630154  RH  094%=      5-min Rain = 0
KPD3 200747Z 28000KT 16/15 A2982 RMK A01 T01630154  RH  094%=      5-min Rain = 0
KPD3 200748Z 00000KT 16/15 A2982 RMK A01 T01630154  RH  094%=      5-min Rain = 0
KPD3 200749Z 00000KT 16/15 A2982 RMK A01 T01640154  RH  094%=      5-min Rain = 0
KPD3 200750Z 00000KT 16/16 A2982 RMK A01 T01640155  RH  094%=      5-min Rain = 0
KPD3 200751Z 00000KT 16/15 A2982 RMK A01 T01640154  RH  094%=      5-min Rain = 0
KPD3 200752Z 00000KT 17/16 A2982 RMK A01 T01650155  RH  094%=      5-min Rain = 0
KPD3 200753Z 00000KT 17/16 A2982 RMK A01 T01650155  RH  094%=      5-min Rain = 0
KPD3 200754Z 00000KT 17/16 A2982 RMK A01 T01650155  RH  093%=      5-min Rain = 0
KPD3 200755Z 34000KT 17/16 A2982 RMK A01 T01660155  RH  093%=      5-min Rain = 0
KPD3 200756Z 34001KT 17/15 A2982 RMK A01 T01650154  RH  093%=      5-min Rain = 0
KPD3 200757Z 34001KT 17/15 A2982 RMK A01 T01650154  RH  093%=      5-min Rain = 0
KPD3 200758Z 34002KT 16/15 A2981 RMK A01 T01640154  RH  094%=      5-min Rain = 0
KPD3 200759Z 35002KT 16/15 A2981 RMK A01 T01640154  RH  094%=      5-min Rain = 0
KPD3 200800Z 35002KT 16/16 A2981 RMK A01 T01640155  RH  094%=      5-min Rain = 0
KPD3 200801Z 35002KT 17/16 A2981 RMK A01 T01650155  RH  094%=      5-min Rain = 0
KPD3 200802Z 34002KT 17/16 A2981 RMK A01 T01650156  RH  094%=      5-min Rain = 0
KPD3 200803Z 34002KT 17/16 A2981 RMK A01 T01650156  RH  094%=      5-min Rain = 0
KPD3 200804Z 34002KT 17/16 A2981 RMK A01 T01650156  RH  094%=      5-min Rain = 0
KPD3 200805Z 33002KT 17/16 A2981 RMK A01 T01660156  RH  094%=      5-min Rain = 0
KPD3 200806Z 32002KT 17/16 A2981 RMK A01 T01660156  RH  094%=      5-min Rain = 0
KPD3 200807Z 32002KT 17/16 A2981 RMK A01 T01660155  RH  093%=      5-min Rain = 0
KPD3 200808Z 32001KT 17/15 A2981 RMK A01 T01660154  RH  093%=      5-min Rain = 0
KPD3 200809Z 33001KT 17/15 A2981 RMK A01 T01650153  RH  093%=      5-min Rain = 0
KPD3 200810Z 31000KT 17/15 A2981 RMK A01 T01650153  RH  093%=      5-min Rain = 0
KPD3 200811Z 31000KT 16/15 A2982 RMK A01 T01640153  RH  093%=      5-min Rain = 0
KPD3 200812Z 00000KT 16/15 A2982 RMK A01 T01640153  RH  093%=      5-min Rain = 0
KPD3 200813Z 00000KT 16/15 A2982 RMK A01 T01630153  RH  094%=      5-min Rain = 0
KPD3 200814Z 00000KT 16/15 A2982 RMK A01 T01630154  RH  094%=      5-min Rain = 0
KPD3 200815Z 03000KT 16/15 A2982 RMK A01 T01630154  RH  094%=      5-min Rain = 0
KPD3 200816Z 05001KT 16/15 A2981 RMK A01 T01630154  RH  094%=      5-min Rain = 0
KPD3 200817Z 05001KT 16/15 A2981 RMK A01 T01630154  RH  094%=      5-min Rain = 0
KPD3 200818Z 04001KT 16/15 A2982 RMK A01 T01640154  RH  094%=      5-min Rain = 0
KPD3 200819Z 04001KT 16/15 A2982 RMK A01 T01640154  RH  094%=      5-min Rain = 0
KPD3 200820Z 04001KT 16/15 A2982 RMK A01 T01640154  RH  094%=      5-min Rain = 0
KPD3 200821Z 02001KT 16/15 A2982 RMK A01 T01640154  RH  094%=      5-min Rain = 0
KPD3 200822Z 35001KT 16/15 A2982 RMK A01 T01630153  RH  094%=      5-min Rain = 0
KPD3 200823Z 34002KT 16/15 A2982 RMK A01 T01630153  RH  094%=      5-min Rain = 0
KPD3 200824Z 34002KT 16/15 A2982 RMK A01 T01620152  RH  094%=      5-min Rain = 0
KPD3 200825Z 34003KT 16/15 A2981 RMK A01 T01620153  RH  094%=      5-min Rain = 0
KPD3 200826Z 34003KT 16/15 A2981 RMK A01 T01620154  RH  095%=      5-min Rain = 0
KPD3 200827Z 35003KT 16/15 A2981 RMK A01 T01630154  RH  095%=      5-min Rain = 0
KPD3 200828Z 35003KT 16/16 A2981 RMK A01 T01640155  RH  095%=      5-min Rain = 0
KPD3 200829Z 34003KT 16/16 A2982 RMK A01 T01640156  RH  095%=      5-min Rain = 0
KPD3 200830Z 33004KT 17/16 A2982 RMK A01 T01650156  RH  095%=      5-min Rain = 0
KPD3 200831Z 33005KT 17/16 A2982 RMK A01 T01650156  RH  094%=      5-min Rain = 0
KPD3 200832Z 34004KT 17/16 A2982 RMK A01 T01650156  RH  094%=      5-min Rain = 0
KPD3 200833Z 34005KT 17/16 A2982 RMK A01 T01660156  RH  094%=      5-min Rain = 0
KPD3 200834Z 35005KT 17/16 A2982 RMK A01 T01660156  RH  094%=      5-min Rain = 0
KPD3 200835Z 35005KT 17/16 A2982 RMK A01 T01660156  RH  094%=      5-min Rain = 0
KPD3 200836Z 35005KT 17/16 A2982 RMK A01 T01660157  RH  094%=      5-min Rain = 0
KPD3 200837Z 36004KT 17/16 A2982 RMK A01 T01660156  RH  094%=      5-min Rain = 0
KPD3 200838Z 00004KT 17/16 A2982 RMK A01 T01670157  RH  094%=      5-min Rain = 0
KPD3 200839Z 00003KT 17/16 A2982 RMK A01 T01670157  RH  094%=      5-min Rain = 0
KPD3 200840Z 00003KT 17/16 A2982 RMK A01 T01670156  RH  093%=      5-min Rain = 0
KPD3 200841Z 36003KT 17/16 A2982 RMK A01 T01660155  RH  093%=      5-min Rain = 0
KPD3 200842Z 36003KT 17/16 A2982 RMK A01 T01660155  RH  093%=      5-min Rain = 0
KPD3 200843Z 35003KT 17/16 A2982 RMK A01 T01660155  RH  093%=      5-min Rain = 0
KPD3 200844Z 35003KT 17/15 A2982 RMK A01 T01650154  RH  093%=      5-min Rain = 0
KPD3 200845Z 34003KT 17/15 A2982 RMK A01 T01650154  RH  093%=      5-min Rain = 0
KPD3 200846Z 34003KT 16/15 A2982 RMK A01 T01640154  RH  094%=      5-min Rain = 0
KPD3 200847Z 34002KT 16/15 A2982 RMK A01 T01640154  RH  094%=      5-min Rain = 0
KPD3 200848Z 35002KT 16/15 A2982 RMK A01 T01640154  RH  094%=      5-min Rain = 0
KPD3 200849Z 35003KT 16/15 A2982 RMK A01 T01640154  RH  094%=      5-min Rain = 0
KPD3 200850Z 35003KT 16/15 A2982 RMK A01 T01630154  RH  094%=      5-min Rain = 0
KPD3 200851Z 35003KT 16/15 A2982 RMK A01 T01640154  RH  094%=      5-min Rain = 0
KPD3 200852Z 00003KT 16/15 A2982 RMK A01 T01640154  RH  094%=      5-min Rain = 0
KPD3 200853Z 36003KT 16/15 A2982 RMK A01 T01640154  RH  094%=      5-min Rain = 0
KPD3 200854Z 35003KT 16/15 A2982 RMK A01 T01630153  RH  094%=      5-min Rain = 0
KPD3 200855Z 34003KT 16/15 A2982 RMK A01 T01630153  RH  094%=      5-min Rain = 0
KPD3 200856Z 33003KT 16/15 A2982 RMK A01 T01630153  RH  094%=      5-min Rain = 0
KPD3 200857Z 34003KT 16/15 A2982 RMK A01 T01630154  RH  094%=      5-min Rain = 0
KPD3 200858Z 34003KT 16/15 A2982 RMK A01 T01620153  RH  094%=      5-min Rain = 0
KPD3 200859Z 34003KT 16/15 A2982 RMK A01 T01620154  RH  095%=      5-min Rain = 0
KPD3 200900Z 34003KT 16/15 A2982 RMK A01 T01620154  RH  095%=      5-min Rain = 0
KPD3 200901Z 34003KT 16/15 A2982 RMK A01 T01630154  RH  095%=      5-min Rain = 0
KPD3 200902Z 34004KT 16/15 A2982 RMK A01 T01630154  RH  095%=      5-min Rain = 0
KPD3 200903Z 34003KT 16/15 A2982 RMK A01 T01630154  RH  095%=      5-min Rain = 0
KPD3 200904Z 33003KT 16/15 A2982 RMK A01 T01630154  RH  095%=      5-min Rain = 0
KPD3 200905Z 33003KT 16/15 A2982 RMK A01 T01630154  RH  095%=      5-min Rain = 0
KPD3 200906Z 34002KT 16/16 A2982 RMK A01 T01630155  RH  095%=      5-min Rain = 0
KPD3 200907Z 35002KT 16/16 A2982 RMK A01 T01630155  RH  095%=      5-min Rain = 0
KPD3 200908Z 36002KT 16/16 A2982 RMK A01 T01630155  RH  095%=      5-min Rain = 0
KPD3 200909Z 35002KT 16/16 A2982 RMK A01 T01630155  RH  095%=      5-min Rain = 0
KPD3 200910Z 35002KT 16/15 A2982 RMK A01 T01630154  RH  095%=      5-min Rain = 0
KPD3 200911Z 35001KT 16/16 A2982 RMK A01 T01630155  RH  095%=      5-min Rain = 0
KPD3 200912Z 35001KT 16/16 A2982 RMK A01 T01630155  RH  095%=      5-min Rain = 0
KPD3 200913Z 34001KT 16/16 A2982 RMK A01 T01630155  RH  095%=      5-min Rain = 0
KPD3 200914Z 34001KT 16/16 A2982 RMK A01 T01630155  RH  095%=      5-min Rain = 0
KPD3 200915Z 33002KT 16/16 A2982 RMK A01 T01640155  RH  095%=      5-min Rain = 0
KPD3 200916Z 33001KT 16/15 A2982 RMK A01 T01630154  RH  094%=      5-min Rain = 0
KPD3 200917Z 32002KT 16/15 A2982 RMK A01 T01630154  RH  094%=      5-min Rain = 0
KPD3 200918Z 32002KT 16/15 A2982 RMK A01 T01630154  RH  095%=      5-min Rain = 0
KPD3 200919Z 32002KT 16/15 A2982 RMK A01 T01620153  RH  095%=      5-min Rain = 0
KPD3 200920Z 32002KT 16/15 A2982 RMK A01 T01620154  RH  095%=      5-min Rain = 0
KPD3 200921Z 32002KT 16/15 A2982 RMK A01 T01620154  RH  095%=      5-min Rain = 0
KPD3 200922Z 32002KT 16/15 A2982 RMK A01 T01620154  RH  095%=      5-min Rain = 0
KPD3 200923Z 32002KT 16/15 A2982 RMK A01 T01620154  RH  095%=      5-min Rain = 0
KPD3 200924Z 31002KT 16/16 A2982 RMK A01 T01620155  RH  095%=      5-min Rain = 0
KPD3 200925Z 31003KT 16/16 A2982 RMK A01 T01630155  RH  095%=      5-min Rain = 0
KPD3 200926Z 31003KT 16/16 A2982 RMK A01 T01620155  RH  095%=      5-min Rain = 0
KPD3 200927Z 31003KT 16/16 A2982 RMK A01 T01620155  RH  095%=      5-min Rain = 0
KPD3 200928Z 31003KT 16/16 A2982 RMK A01 T01620155  RH  095%=      5-min Rain = 0
KPD3 200929Z 31003KT 16/16 A2982 RMK A01 T01620155  RH  095%=      5-min Rain = 0
KPD3 200930Z 30003KT 16/16 A2982 RMK A01 T01620155  RH  095%=      5-min Rain = 0
KPD3 200931Z 31002KT 16/15 A2982 RMK A01 T01620154  RH  095%=      5-min Rain = 0
KPD3 200932Z 31002KT 16/16 A2982 RMK A01 T01620155  RH  095%=      5-min Rain = 0
KPD3 200933Z 32001KT 16/16 A2982 RMK A01 T01620155  RH  096%=      5-min Rain = 0
KPD3 200934Z 33001KT 16/16 A2982 RMK A01 T01620155  RH  095%=      5-min Rain = 0
KPD3 200935Z 34001KT 16/15 A2982 RMK A01 T01620154  RH  095%=      5-min Rain = 0
KPD3 200936Z 00000KT 16/16 A2982 RMK A01 T01620155  RH  095%=      5-min Rain = 0
KPD3 200937Z 01000KT 16/16 A2982 RMK A01 T01620155  RH  096%=      5-min Rain = 0
KPD3 200938Z 00000KT 16/15 A2982 RMK A01 T01620154  RH  096%=      5-min Rain = 0
KPD3 200939Z 00000KT 16/16 A2982 RMK A01 T01620155  RH  096%=      5-min Rain = 0
KPD3 200940Z 00000KT 16/16 A2982 RMK A01 T01620155  RH  096%=      5-min Rain = 0
KPD3 200941Z 00000KT 16/16 A2982 RMK A01 T01620155  RH  096%=      5-min Rain = 0
KPD3 200942Z 00000KT 16/16 A2982 RMK A01 T01620155  RH  096%=      5-min Rain = 0
KPD3 200943Z 00000KT 16/16 A2982 RMK A01 T01620155  RH  096%=      5-min Rain = 0
KPD3 200944Z 00000KT 16/16 A2982 RMK A01 T01620155  RH  096%=      5-min Rain = 0
KPD3 200945Z 00000KT 16/15 A2981 RMK A01 T01620154  RH  095%=      5-min Rain = 0
KPD3 200946Z 00000KT 16/15 A2981 RMK A01 T01620154  RH  095%=      5-min Rain = 0
KPD3 200947Z 01001KT 16/15 A2981 RMK A01 T01620154  RH  095%=      5-min Rain = 0
KPD3 200948Z 01001KT 16/16 A2981 RMK A01 T01620155  RH  095%=      5-min Rain = 0
KPD3 200949Z 02001KT 16/15 A2981 RMK A01 T01620154  RH  095%=      5-min Rain = 0
KPD3 200950Z 02001KT 16/15 A2981 RMK A01 T01620154  RH  095%=      5-min Rain = 0
KPD3 200951Z 02001KT 16/16 A2981 RMK A01 T01620155  RH  095%=      5-min Rain = 0
KPD3 200952Z 02002KT 16/16 A2981 RMK A01 T01620155  RH  095%=      5-min Rain = 0
KPD3 200953Z 01002KT 16/16 A2981 RMK A01 T01620155  RH  095%=      5-min Rain = 0
KPD3 200954Z 01002KT 16/15 A2981 RMK A01 T01620154  RH  095%=      5-min Rain = 0
KPD3 200955Z 01002KT 16/15 A2981 RMK A01 T01620154  RH  095%=      5-min Rain = 0
KPD3 200956Z 01002KT 16/15 A2981 RMK A01 T01620154  RH  095%=      5-min Rain = 0
KPD3 200957Z 01002KT 16/15 A2981 RMK A01 T01620154  RH  095%=      5-min Rain = 0
KPD3 200958Z 01003KT 16/15 A2981 RMK A01 T01620154  RH  095%=      5-min Rain = 0
KPD3 200959Z 01003KT 16/15 A2981 RMK A01 T01610153  RH  095%=      5-min Rain = 0
KPD3 201000Z 01003KT 16/15 A2981 RMK A01 T01610153  RH  095%=      5-min Rain = 0
KPD3 201001Z 01003KT 16/15 A2981 RMK A01 T01610154  RH  095%=      5-min Rain = 0
KPD3 201002Z 01003KT 16/15 A2981 RMK A01 T01610154  RH  095%=      5-min Rain = 0
KPD3 201003Z 01003KT 16/15 A2981 RMK A01 T01620154  RH  095%=      5-min Rain = 0
KPD3 201004Z 01002KT 16/15 A2981 RMK A01 T01620154  RH  095%=      5-min Rain = 0
KPD3 201005Z 02002KT 16/15 A2981 RMK A01 T01620154  RH  095%=      5-min Rain = 0
KPD3 201006Z 01002KT 16/16 A2981 RMK A01 T01620155  RH  096%=      5-min Rain = 0
KPD3 201007Z 02002KT 16/16 A2981 RMK A01 T01620155  RH  096%=      5-min Rain = 0
KPD3 201008Z 02002KT 16/16 A2981 RMK A01 T01620155  RH  095%=      5-min Rain = 0
KPD3 201009Z 02002KT 16/16 A2981 RMK A01 T01620155  RH  095%=      5-min Rain = 0
KPD3 201010Z 02002KT 16/16 A2981 RMK A01 T01620155  RH  095%=      5-min Rain = 0
KPD3 201011Z 01002KT 16/16 A2981 RMK A01 T01620155  RH  095%=      5-min Rain = 0
KPD3 201012Z 01002KT 16/15 A2981 RMK A01 T01620154  RH  095%=      5-min Rain = 0
KPD3 201013Z 02002KT 16/15 A2981 RMK A01 T01620154  RH  095%=      5-min Rain = 0
KPD3 201014Z 02002KT 16/15 A2981 RMK A01 T01620154  RH  095%=      5-min Rain = 0
KPD3 201015Z 02002KT 16/15 A2981 RMK A01 T01620154  RH  095%=      5-min Rain = 0
KPD3 201016Z 02002KT 16/15 A2981 RMK A01 T01610153  RH  095%=      5-min Rain = 0
KPD3 201017Z 01002KT 16/15 A2981 RMK A01 T01610152  RH  095%=      5-min Rain = 0
KPD3 201018Z 01002KT 16/15 A2981 RMK A01 T01600152  RH  095%=      5-min Rain = 0
KPD3 201019Z 01002KT 16/15 A2981 RMK A01 T01600152  RH  095%=      5-min Rain = 0
KPD3 201020Z 01002KT 16/15 A2981 RMK A01 T01600152  RH  095%=      5-min Rain = 0
KPD3 201021Z 36002KT 16/15 A2981 RMK A01 T01600152  RH  095%=      5-min Rain = 0
KPD3 201022Z 35002KT 16/15 A2981 RMK A01 T01590151  RH  095%=      5-min Rain = 0
KPD3 201023Z 34002KT 16/15 A2981 RMK A01 T01590150  RH  095%=      5-min Rain = 0
KPD3 201024Z 34002KT 16/15 A2981 RMK A01 T01580150  RH  095%=      5-min Rain = 0
KPD3 201025Z 34002KT 16/15 A2981 RMK A01 T01580149  RH  095%=      5-min Rain = 0
KPD3 201026Z 34002KT 16/15 A2981 RMK A01 T01570149  RH  095%=      5-min Rain = 0
KPD3 201027Z 34002KT 16/15 A2981 RMK A01 T01570150  RH  095%=      5-min Rain = 0
KPD3 201028Z 34003KT 16/15 A2981 RMK A01 T01570150  RH  096%=      5-min Rain = 0
KPD3 201029Z 34003KT 16/15 A298 RMK A01 T01570150  RH  096%=      5-min Rain = 0
KPD3 201030Z 34003KT 16/15 A298 RMK A01 T01570151  RH  096%=      5-min Rain = 0
KPD3 201031Z 34003KT 16/15 A298 RMK A01 T01570150  RH  096%=      5-min Rain = 0
KPD3 201032Z 33003KT 16/15 A298 RMK A01 T01560150  RH  096%=      5-min Rain = 0
KPD3 201033Z 33003KT 16/15 A298 RMK A01 T01560150  RH  096%=      5-min Rain = 0
KPD3 201034Z 32003KT 16/15 A298 RMK A01 T01560149  RH  096%=      5-min Rain = 0
KPD3 201035Z 32003KT 16/15 A298 RMK A01 T01560150  RH  096%=      5-min Rain = 0
KPD3 201036Z 32003KT 16/15 A298 RMK A01 T01550150  RH  096%=      5-min Rain = 0
KPD3 201037Z 32003KT 16/15 A298 RMK A01 T01550149  RH  096%=      5-min Rain = 0
KPD3 201038Z 32003KT 16/15 A298 RMK A01 T01550149  RH  096%=      5-min Rain = 0
KPD3 201039Z 33003KT 16/15 A298 RMK A01 T01550149  RH  096%=      5-min Rain = 0
KPD3 201040Z 32003KT 15/15 A298 RMK A01 T01540149  RH  096%=      5-min Rain = 0
KPD3 201041Z 31003KT 15/15 A2981 RMK A01 T01540148  RH  096%=      5-min Rain = 0
KPD3 201042Z 31003KT 15/15 A2981 RMK A01 T01540148  RH  096%=      5-min Rain = 0
KPD3 201043Z 34002KT 15/15 A2981 RMK A01 T01540148  RH  096%=      5-min Rain = 0
KPD3 201044Z 35003KT 15/15 A298 RMK A01 T01530147  RH  096%=      5-min Rain = 0
KPD3 201045Z 36003KT 15/15 A298 RMK A01 T01530147  RH  096%=      5-min Rain = 0
KPD3 201046Z 01003KT 15/15 A298 RMK A01 T01530147  RH  096%=      5-min Rain = 0
KPD3 201047Z 01003KT 15/15 A298 RMK A01 T01530147  RH  096%=      5-min Rain = 0
KPD3 201048Z 01003KT 15/15 A298 RMK A01 T01540149  RH  097%=      5-min Rain = 0
KPD3 201049Z 01003KT 16/15 A298 RMK A01 T01550150  RH  097%=      5-min Rain = 0
KPD3 201050Z 01003KT 15/15 A298 RMK A01 T01540150  RH  097%=      5-min Rain = 0
KPD3 201051Z 01003KT 16/15 A298 RMK A01 T01550150  RH  097%=      5-min Rain = 0
KPD3 201052Z 01003KT 16/15 A298 RMK A01 T01550151  RH  097%=      5-min Rain = 0
KPD3 201053Z 01003KT 16/15 A298 RMK A01 T01560151  RH  097%=      5-min Rain = 0
KPD3 201054Z 01003KT 16/15 A298 RMK A01 T01560150  RH  097%=      5-min Rain = 0
KPD3 201055Z 01003KT 16/15 A298 RMK A01 T01560151  RH  097%=      5-min Rain = 0
KPD3 201056Z 01003KT 16/15 A298 RMK A01 T01560151  RH  097%=      5-min Rain = 0
KPD3 201057Z 00003KT 16/15 A298 RMK A01 T01570151  RH  097%=      5-min Rain = 0
KPD3 201058Z 36004KT 16/15 A298 RMK A01 T01570152  RH  097%=      5-min Rain = 0
KPD3 201059Z 35004KT 16/15 A298 RMK A01 T01580152  RH  096%=      5-min Rain = 0
KPD3 201100Z 35004KT 16/15 A2981 RMK A01 T01570151  RH  096%=      5-min Rain = 0
KPD3 201101Z 34004KT 16/15 A2981 RMK A01 T01570150  RH  096%=      5-min Rain = 0
KPD3 201102Z 34004KT 16/15 A2981 RMK A01 T01560150  RH  096%=      5-min Rain = 0
KPD3 201103Z 33004KT 16/15 A2981 RMK A01 T01560149  RH  096%=      5-min Rain = 0
KPD3 201104Z 32004KT 16/15 A2981 RMK A01 T01550149  RH  096%=      5-min Rain = 0
KPD3 201105Z 33004KT 16/15 A2981 RMK A01 T01550148  RH  096%=      5-min Rain = 0
KPD3 201106Z 34004KT 16/15 A2981 RMK A01 T01550149  RH  096%=      5-min Rain = 0
KPD3 201107Z 34004KT 16/15 A2981 RMK A01 T01550149  RH  097%=      5-min Rain = 0
KPD3 201108Z 35004KT 16/15 A2981 RMK A01 T01550150  RH  097%=      5-min Rain = 0
KPD3 201109Z 36004KT 16/15 A2981 RMK A01 T01550150  RH  097%=      5-min Rain = 0
KPD3 201110Z 00004KT 16/15 A2981 RMK A01 T01550150  RH  097%=      5-min Rain = 0
KPD3 201111Z 00004KT 16/15 A2981 RMK A01 T01550149  RH  097%=      5-min Rain = 0
KPD3 201112Z 36004KT 16/15 A2981 RMK A01 T01550149  RH  097%=      5-min Rain = 0
KPD3 201113Z 35004KT 16/15 A2981 RMK A01 T01550149  RH  097%=      5-min Rain = 0
KPD3 201114Z 35004KT 16/15 A2981 RMK A01 T01550149  RH  097%=      5-min Rain = 0
KPD3 201115Z 35004KT 15/15 A2981 RMK A01 T01540149  RH  096%=      5-min Rain = 0
KPD3 201116Z 35004KT 15/15 A2981 RMK A01 T01540148  RH  096%=      5-min Rain = 0
KPD3 201117Z 35004KT 15/15 A2981 RMK A01 T01540148  RH  096%=      5-min Rain = 0
KPD3 201118Z 35004KT 15/15 A2981 RMK A01 T01530148  RH  096%=      5-min Rain = 0
KPD3 201119Z 35004KT 15/15 A2981 RMK A01 T01530147  RH  096%=      5-min Rain = 0
KPD3 201120Z 34004KT 15/15 A2981 RMK A01 T01530147  RH  096%=      5-min Rain = 0
KPD3 201121Z 34005KT 15/15 A2981 RMK A01 T01530147  RH  097%=      5-min Rain = 0
KPD3 201122Z 34005KT 15/15 A2981 RMK A01 T01530147  RH  097%=      5-min Rain = 0
KPD3 201123Z 34005KT 15/15 A2981 RMK A01 T01530147  RH  097%=      5-min Rain = 0
KPD3 201124Z 34005KT 15/15 A2981 RMK A01 T01530147  RH  097%=      5-min Rain = 0
KPD3 201125Z 34005KT 15/15 A2981 RMK A01 T01530148  RH  097%=      5-min Rain = 0
KPD3 201126Z 34005KT 15/15 A2981 RMK A01 T01530148  RH  097%=      5-min Rain = 0
KPD3 201127Z 34006KT 15/15 A2981 RMK A01 T01530149  RH  097%=      5-min Rain = 0
KPD3 201128Z 34006KT 15/15 A2981 RMK A01 T01540150  RH  097%=      5-min Rain = 0
KPD3 201129Z 34006KT 15/15 A2981 RMK A01 T01540150  RH  097%=      5-min Rain = 0
KPD3 201130Z 34006KT 16/15 A2981 RMK A01 T01550151  RH  097%=      5-min Rain = 0
KPD3 201131Z 34006KT 16/15 A2981 RMK A01 T01560152  RH  097%=      5-min Rain = 0
KPD3 201132Z 34005KT 16/15 A2981 RMK A01 T01570153  RH  097%=      5-min Rain = 0
KPD3 201133Z 34005KT 16/16 A2981 RMK A01 T01580155  RH  098%=      5-min Rain = 0
KPD3 201134Z 34005KT 16/16 A2981 RMK A01 T01590156  RH  098%=      5-min Rain = 0
KPD3 201135Z 34005KT 16/16 A2981 RMK A01 T01600156  RH  097%=      5-min Rain = 0
KPD3 201136Z 34005KT 16/16 A2981 RMK A01 T01610156  RH  097%=      5-min Rain = 0
KPD3 201137Z 35005KT 16/16 A2981 RMK A01 T01610156  RH  097%=      5-min Rain = 0
KPD3 201138Z 35005KT 16/16 A2981 RMK A01 T01610156  RH  097%=      5-min Rain = 0
KPD3 201139Z 35005KT 16/16 A2981 RMK A01 T01620157  RH  097%=      5-min Rain = 0
KPD3 201140Z 35005KT 16/16 A2981 RMK A01 T01620156  RH  096%=      5-min Rain = 0
KPD3 201141Z 34005KT 16/16 A2981 RMK A01 T01620156  RH  096%=      5-min Rain = 0
KPD3 201142Z 34005KT 16/16 A2981 RMK A01 T01620156  RH  096%=      5-min Rain = 0
KPD3 201143Z 34005KT 16/16 A2981 RMK A01 T01620155  RH  096%=      5-min Rain = 0
KPD3 201144Z 34005KT 16/16 A2981 RMK A01 T01620155  RH  096%=      5-min Rain = 0
KPD3 201145Z 34006KT 16/16 A2981 RMK A01 T01620155  RH  096%=      5-min Rain = 0
KPD3 201146Z 34006KT 16/16 A2981 RMK A01 T01620156  RH  096%=      5-min Rain = 0
KPD3 201147Z 34006KT 16/16 A2981 RMK A01 T01620156  RH  096%=      5-min Rain = 0
KPD3 201148Z 34006KT 16/16 A2981 RMK A01 T01620156  RH  096%=      5-min Rain = 0
KPD3 201149Z 34006KT 16/16 A2981 RMK A01 T01630156  RH  096%=      5-min Rain = 0
KPD3 201150Z 34006KT 16/16 A2981 RMK A01 T01630156  RH  096%=      5-min Rain = 0
KPD3 201151Z 34006KT 16/16 A2981 RMK A01 T01630156  RH  096%=      5-min Rain = 0
KPD3 201152Z 34006KT 16/16 A2981 RMK A01 T01630157  RH  096%=      5-min Rain = 0
KPD3 201153Z 34006KT 16/16 A2981 RMK A01 T01630157  RH  096%=      5-min Rain = 0
KPD3 201154Z 33006KT 16/16 A2981 RMK A01 T01640157  RH  096%=      5-min Rain = 0
KPD3 201155Z 33006KT 16/16 A2981 RMK A01 T01640158  RH  096%=      5-min Rain = 0
KPD3 201156Z 33006KT 16/16 A2981 RMK A01 T01640158  RH  096%=      5-min Rain = 0
KPD3 201157Z 33006KT 17/16 A2981 RMK A01 T01650158  RH  096%=      5-min Rain = 0
KPD3 201158Z 33006KT 17/16 A2981 RMK A01 T01650158  RH  096%=      5-min Rain = 0
KPD3 201159Z 33006KT 17/16 A2982 RMK A01 T01660159  RH  096%=      5-min Rain = 0
KPD3 201200Z 33006KT 17/16 A2982 RMK A01 T01660159  RH  096%=      5-min Rain = 0
KPD3 201201Z 33006KT 17/16 A2982 RMK A01 T01670160  RH  096%=      5-min Rain = 0
KPD3 201202Z 33006KT 17/16 A2982 RMK A01 T01680160  RH  096%=      5-min Rain = 0
KPD3 201203Z 33006KT 17/16 A2982 RMK A01 T01680161  RH  096%=      5-min Rain = 0
KPD3 201204Z 33006KT 17/16 A2981 RMK A01 T01690162  RH  096%=      5-min Rain = 0
KPD3 201205Z 33006KT 17/16 A2982 RMK A01 T01700163  RH  095%=      5-min Rain = 0
KPD3 201206Z 33006KT 17/16 A2981 RMK A01 T01700163  RH  095%=      5-min Rain = 0
KPD3 201207Z 33006KT 17/16 A2981 RMK A01 T01710164  RH  095%=      5-min Rain = 0
KPD3 201208Z 33006KT 17/17 A2981 RMK A01 T01720165  RH  095%=      5-min Rain = 0
KPD3 201209Z 33006KT 17/17 A2981 RMK A01 T01730165  RH  095%=      5-min Rain = 0
KPD3 201210Z 33006KT 17/17 A2982 RMK A01 T01740166  RH  095%=      5-min Rain = 0
KPD3 201211Z 33005KT 18/17 A2982 RMK A01 T01750167  RH  095%=      5-min Rain = 0
KPD3 201212Z 33006KT 18/17 A2982 RMK A01 T01760168  RH  095%=      5-min Rain = 0
KPD3 201213Z 33005KT 18/17 A2981 RMK A01 T01770168  RH  095%=      5-min Rain = 0
KPD3 201214Z 34005KT 18/17 A2981 RMK A01 T01780170  RH  095%=      5-min Rain = 0
KPD3 201215Z 34005KT 18/17 A2981 RMK A01 T01790170  RH  095%=      5-min Rain = 0
KPD3 201216Z 34004KT 18/17 A2981 RMK A01 T01800171  RH  094%=      5-min Rain = 0
KPD3 201217Z 34004KT 18/17 A2981 RMK A01 T01810172  RH  094%=      5-min Rain = 0
KPD3 201218Z 34004KT 18/17 A2981 RMK A01 T01820172  RH  094%=      5-min Rain = 0
KPD3 201219Z 34004KT 18/17 A2981 RMK A01 T01830173  RH  094%=      5-min Rain = 0
KPD3 201220Z 34004KT 18/17 A2981 RMK A01 T01840174  RH  094%=      5-min Rain = 0
KPD3 201221Z 34004KT 19/17 A2981 RMK A01 T01850174  RH  093%=      5-min Rain = 0
KPD3 201222Z 34004KT 19/18 A2981 RMK A01 T01860175  RH  093%=      5-min Rain = 0
KPD3 201223Z 34004KT 19/18 A2981 RMK A01 T01870175  RH  093%=      5-min Rain = 0
KPD3 201224Z 34004KT 19/18 A2981 RMK A01 T01870175  RH  093%=      5-min Rain = 0
KPD3 201225Z 34004KT 19/18 A2981 RMK A01 T01880176  RH  093%=      5-min Rain = 0
KPD3 201226Z 34004KT 19/18 A2981 RMK A01 T01890176  RH  092%=      5-min Rain = 0
KPD3 201227Z 34004KT 19/18 A2981 RMK A01 T01890177  RH  092%=      5-min Rain = 0
KPD3 201228Z 34004KT 19/18 A2981 RMK A01 T01910178  RH  093%=      5-min Rain = 0
KPD3 201229Z 34004KT 19/18 A2981 RMK A01 T01910179  RH  093%=      5-min Rain = 0
KPD3 201230Z 33003KT 19/18 A2981 RMK A01 T01920180  RH  092%=      5-min Rain = 0
KPD3 201231Z 33003KT 19/18 A2981 RMK A01 T01930180  RH  092%=      5-min Rain = 0
KPD3 201232Z 33003KT 19/18 A2981 RMK A01 T01940181  RH  092%=      5-min Rain = 0
KPD3 201233Z 33003KT 19/18 A2981 RMK A01 T01940181  RH  092%=      5-min Rain = 0
KPD3 201234Z 33003KT 20/18 A2981 RMK A01 T01950180  RH  091%=      5-min Rain = 0
KPD3 201235Z 33003KT 20/18 A2981 RMK A01 T01960181  RH  091%=      5-min Rain = 0
KPD3 201236Z 33003KT 20/18 A2981 RMK A01 T01960182  RH  091%=      5-min Rain = 0
KPD3 201237Z 32002KT 20/18 A2981 RMK A01 T01970182  RH  091%=      5-min Rain = 0
KPD3 201238Z 33002KT 20/18 A2981 RMK A01 T01980183  RH  091%=      5-min Rain = 0
KPD3 201239Z 33002KT 20/18 A2981 RMK A01 T01990184  RH  091%=      5-min Rain = 0
KPD3 201240Z 34002KT 20/19 A2981 RMK A01 T02000185  RH  091%=      5-min Rain = 0
KPD3 201241Z 34002KT 20/19 A2981 RMK A01 T02010185  RH  091%=      5-min Rain = 0
KPD3 201242Z 34002KT 20/19 A2981 RMK A01 T02020186  RH  090%=      5-min Rain = 0
KPD3 201243Z 35002KT 20/19 A2981 RMK A01 T02020185  RH  090%=      5-min Rain = 0
KPD3 201244Z 36001KT 20/19 A2981 RMK A01 T02040187  RH  090%=      5-min Rain = 0
KPD3 201245Z 35001KT 21/19 A2981 RMK A01 T02050187  RH  090%=      5-min Rain = 0
KPD3 201246Z 01001KT 21/19 A2981 RMK A01 T02060187  RH  089%=      5-min Rain = 0
KPD3 201247Z 02001KT 21/19 A2981 RMK A01 T02070187  RH  088%=      5-min Rain = 0
KPD3 201248Z 01001KT 21/19 A2981 RMK A01 T02080187  RH  088%=      5-min Rain = 0
KPD3 201249Z 02001KT 21/19 A2981 RMK A01 T02090188  RH  088%=      5-min Rain = 0
KPD3 201250Z 02002KT 21/19 A2981 RMK A01 T02100188  RH  087%=      5-min Rain = 0
KPD3 201251Z 03001KT 21/19 A2981 RMK A01 T02110190  RH  087%=      5-min Rain = 0
KPD3 201252Z 02001KT 21/19 A2981 RMK A01 T02130189  RH  086%=      5-min Rain = 0
KPD3 201253Z 03001KT 21/19 A2981 RMK A01 T02140189  RH  086%=      5-min Rain = 0
KPD3 201254Z 01002KT 22/19 A2981 RMK A01 T02150191  RH  086%=      5-min Rain = 0
KPD3 201255Z 01002KT 22/19 A2981 RMK A01 T02150189  RH  085%=      5-min Rain = 0
KPD3 201256Z 01002KT 22/19 A2981 RMK A01 T02150190  RH  085%=      5-min Rain = 0
KPD3 201257Z 01002KT 22/19 A2981 RMK A01 T02150190  RH  085%=      5-min Rain = 0
KPD3 201258Z 01002KT 22/19 A2981 RMK A01 T02150189  RH  085%=      5-min Rain = 0
KPD3 201259Z 01002KT 22/19 A2981 RMK A01 T02150190  RH  086%=      5-min Rain = 0
KPD3 201300Z 00002KT 22/19 A2981 RMK A01 T02150189  RH  085%=      5-min Rain = 0
KPD3 201301Z 36002KT 22/19 A2981 RMK A01 T02160191  RH  086%=      5-min Rain = 0
KPD3 201302Z 36002KT 22/19 A2981 RMK A01 T02160191  RH  085%=      5-min Rain = 0
KPD3 201303Z 00002KT 22/19 A2981 RMK A01 T02160189  RH  085%=      5-min Rain = 0
KPD3 201304Z 02002KT 22/19 A2981 RMK A01 T02170189  RH  084%=      5-min Rain = 0
KPD3 201305Z 02002KT 22/19 A2981 RMK A01 T02180189  RH  084%=      5-min Rain = 0
KPD3 201306Z 01001KT 22/19 A2981 RMK A01 T02180190  RH  084%=      5-min Rain = 0
KPD3 201307Z 00001KT 22/19 A2981 RMK A01 T02190191  RH  084%=      5-min Rain = 0
KPD3 201308Z 36002KT 22/19 A2981 RMK A01 T02200191  RH  084%=      5-min Rain = 0
KPD3 201309Z 36002KT 22/19 A2981 RMK A01 T02210191  RH  083%=      5-min Rain = 0
KPD3 201310Z 02002KT 22/19 A2981 RMK A01 T02210190  RH  082%=      5-min Rain = 0
KPD3 201311Z 04002KT 22/19 A2981 RMK A01 T02220191  RH  082%=      5-min Rain = 0
KPD3 201312Z 04002KT 22/19 A2981 RMK A01 T02220190  RH  082%=      5-min Rain = 0
KPD3 201313Z 00002KT 22/19 A2981 RMK A01 T02230191  RH  082%=      5-min Rain = 0
KPD3 201314Z 01002KT 22/19 A2981 RMK A01 T02230193  RH  083%=      5-min Rain = 0
KPD3 201315Z 01002KT 22/19 A2981 RMK A01 T02230189  RH  081%=      5-min Rain = 0
KPD3 201316Z 01001KT 22/19 A2981 RMK A01 T02230191  RH  082%=      5-min Rain = 0
KPD3 201317Z 01001KT 22/19 A2981 RMK A01 T02240193  RH  083%=      5-min Rain = 0
KPD3 201318Z 35001KT 22/19 A2981 RMK A01 T02240193  RH  082%=      5-min Rain = 0
KPD3 201319Z 33002KT 23/19 A2981 RMK A01 T02250193  RH  082%=      5-min Rain = 0
KPD3 201320Z 35001KT 23/19 A2981 RMK A01 T02250193  RH  082%=      5-min Rain = 0
KPD3 201321Z 36001KT 23/19 A2981 RMK A01 T02250193  RH  082%=      5-min Rain = 0
KPD3 201322Z 02001KT 23/19 A2981 RMK A01 T02250194  RH  082%=      5-min Rain = 0
KPD3 201323Z 03001KT 23/19 A2981 RMK A01 T02260193  RH  081%=      5-min Rain = 0
KPD3 201324Z 04000KT 23/19 A2981 RMK A01 T02270192  RH  080%=      5-min Rain = 0
KPD3 201325Z 00000KT 23/19 A2981 RMK A01 T02290193  RH  080%=      5-min Rain = 0
KPD3 201326Z 00000KT 23/19 A2981 RMK A01 T02310194  RH  080%=      5-min Rain = 0
KPD3 201327Z 05001KT 23/20 A2981 RMK A01 T02340195  RH  079%=      5-min Rain = 0
KPD3 201328Z 06001KT 24/20 A2981 RMK A01 T02350196  RH  079%=      5-min Rain = 0
KPD3 201329Z 08001KT 24/20 A2981 RMK A01 T02350195  RH  078%=      5-min Rain = 0
KPD3 201330Z 10001KT 24/20 A2981 RMK A01 T02350196  RH  078%=      5-min Rain = 0
KPD3 201331Z 07001KT 24/20 A2981 RMK A01 T02350195  RH  078%=      5-min Rain = 0
KPD3 201332Z 08001KT 24/20 A2981 RMK A01 T02360195  RH  078%=      5-min Rain = 0
KPD3 201333Z 10001KT 24/19 A2981 RMK A01 T02360194  RH  077%=      5-min Rain = 0
KPD3 201334Z 12000KT 24/19 A2981 RMK A01 T02360194  RH  077%=      5-min Rain = 0
KPD3 201335Z 11000KT 24/20 A2981 RMK A01 T02370196  RH  078%=      5-min Rain = 0
KPD3 201336Z 13001KT 24/19 A2981 RMK A01 T02390194  RH  076%=      5-min Rain = 0
KPD3 201337Z 14001KT 24/19 A2981 RMK A01 T02400193  RH  075%=      5-min Rain = 0
KPD3 201338Z 14000KT 24/20 A2981 RMK A01 T02400196  RH  077%=      5-min Rain = 0
KPD3 201339Z 18001KT 24/20 A2981 RMK A01 T02400195  RH  076%=      5-min Rain = 0
KPD3 201340Z 17002KT 24/20 A2981 RMK A01 T02390195  RH  076%=      5-min Rain = 0
KPD3 201341Z 17002KT 24/19 A2981 RMK A01 T02380194  RH  076%=      5-min Rain = 0
KPD3 201342Z 16001KT 24/19 A2981 RMK A01 T02370194  RH  077%=      5-min Rain = 0
KPD3 201343Z 15002KT 24/19 A2981 RMK A01 T02380194  RH  077%=      5-min Rain = 0
KPD3 201344Z 16001KT 24/20 A2981 RMK A01 T02380196  RH  077%=      5-min Rain = 0
KPD3 201345Z 17001KT 24/20 A2981 RMK A01 T02390196  RH  077%=      5-min Rain = 0
KPD3 201346Z 18001KT 24/20 A2981 RMK A01 T02380195  RH  077%=      5-min Rain = 0
KPD3 201347Z 18001KT 24/20 A2981 RMK A01 T02380195  RH  077%=      5-min Rain = 0
KPD3 201348Z 18001KT 24/20 A2981 RMK A01 T02370195  RH  077%=      5-min Rain = 0
KPD3 201349Z 16002KT 24/20 A2981 RMK A01 T02370195  RH  077%=      5-min Rain = 0
KPD3 201350Z 15002KT 24/20 A2981 RMK A01 T02370198  RH  079%=      5-min Rain = 0
KPD3 201351Z 14002KT 24/20 A2981 RMK A01 T02390197  RH  078%=      5-min Rain = 0
KPD3 201352Z 16003KT 24/20 A2981 RMK A01 T02400198  RH  077%=      5-min Rain = 0
KPD3 201353Z 17002KT 24/20 A2981 RMK A01 T02410197  RH  076%=      5-min Rain = 0
KPD3 201354Z 17002KT 24/20 A2981 RMK A01 T02420198  RH  077%=      5-min Rain = 0
KPD3 201355Z 15003KT 24/20 A2981 RMK A01 T02430199  RH  076%=      5-min Rain = 0
KPD3 201356Z 15002KT 24/20 A2981 RMK A01 T02440197  RH  075%=      5-min Rain = 0
KPD3 201357Z 14003KT 24/20 A2981 RMK A01 T02440200  RH  077%=      5-min Rain = 0
KPD3 201358Z 16002KT 24/20 A2981 RMK A01 T02440198  RH  076%=      5-min Rain = 0
KPD3 201359Z 16002KT 25/20 A2981 RMK A01 T02450200  RH  076%=      5-min Rain = 0
KPD3 201400Z 15002KT 25/20 A2981 RMK A01 T02450198  RH  075%=      5-min Rain = 0
KPD3 201401Z 14003KT 25/20 A2981 RMK A01 T02460201  RH  076%=      5-min Rain = 0
KPD3 201402Z 16003KT 25/20 A2981 RMK A01 T02470198  RH  074%=      5-min Rain = 0
KPD3 201403Z 17004KT 25/20 A2981 RMK A01 T02480200  RH  075%=      5-min Rain = 0
KPD3 201404Z 17003KT 25/20 A2981 RMK A01 T02480198  RH  074%=      5-min Rain = 0
KPD3 201405Z 17002KT 25/20 A2981 RMK A01 T02470197  RH  074%=      5-min Rain = 0
KPD3 201406Z 16002KT 25/20 A2981 RMK A01 T02460197  RH  074%=      5-min Rain = 0
KPD3 201407Z 16002KT 25/20 A2981 RMK A01 T02460197  RH  074%=      5-min Rain = 0
KPD3 201408Z 14002KT 25/20 A2981 RMK A01 T02470198  RH  074%=      5-min Rain = 0
KPD3 201409Z 14003KT 25/20 A2981 RMK A01 T02480198  RH  074%=      5-min Rain = 0
KPD3 201410Z 13004KT 25/20 A2981 RMK A01 T02490197  RH  073%=      5-min Rain = 0
KPD3 201411Z 14005KT 25/20 A2981 RMK A01 T02510201  RH  074%=      5-min Rain = 0
KPD3 201412Z 15004KT 25/20 A2981 RMK A01 T02520196  RH  071%=      5-min Rain = 0
KPD3 201413Z 17004KT 25/20 A2981 RMK A01 T02520197  RH  072%=      5-min Rain = 0
KPD3 201414Z 18004KT 25/20 A2981 RMK A01 T02520198  RH  072%=      5-min Rain = 0
KPD3 201415Z 18003KT 25/20 A2981 RMK A01 T02510197  RH  072%=      5-min Rain = 0
KPD3 201416Z 17003KT 25/20 A2981 RMK A01 T02500196  RH  072%=      5-min Rain = 0
KPD3 201417Z 16004KT 25/20 A2981 RMK A01 T02500198  RH  073%=      5-min Rain = 0
KPD3 201418Z 17004KT 25/20 A2981 RMK A01 T02500195  RH  072%=      5-min Rain = 0
KPD3 201419Z 18005KT 25/20 A2981 RMK A01 T02510199  RH  073%=      5-min Rain = 0
KPD3 201420Z 17005KT 25/20 A2981 RMK A01 T02510198  RH  072%=      5-min Rain = 0
KPD3 201421Z 15003KT 25/20 A2981 RMK A01 T02510200  RH  073%=      5-min Rain = 0
KPD3 201422Z 15004KT 25/20 A2981 RMK A01 T02530200  RH  073%=      5-min Rain = 0
KPD3 201423Z 14005KT 25/20 A2981 RMK A01 T02540202  RH  073%=      5-min Rain = 0
KPD3 201424Z 13005KT 26/20 A2981 RMK A01 T02560200  RH  071%=      5-min Rain = 0
KPD3 201425Z 14004KT 26/20 A2981 RMK A01 T02560198  RH  070%=      5-min Rain = 0
KPD3 201426Z 17005KT 26/20 A2981 RMK A01 T02550198  RH  071%=      5-min Rain = 0
KPD3 201427Z 16004KT 25/20 A2981 RMK A01 T02540200  RH  072%=      5-min Rain = 0
KPD3 201428Z 16005KT 25/20 A2981 RMK A01 T02540195  RH  070%=      5-min Rain = 0
KPD3 201429Z 16004KT 25/20 A2981 RMK A01 T02540195  RH  070%=      5-min Rain = 0
KPD3 201430Z 17004KT 25/20 A2981 RMK A01 T02540195  RH  070%=      5-min Rain = 0
KPD3 201431Z 14004KT 25/20 A2981 RMK A01 T02540197  RH  070%=      5-min Rain = 0
KPD3 201432Z 16004KT 26/20 A2981 RMK A01 T02550196  RH  070%=      5-min Rain = 0
KPD3 201433Z 19004KT 26/19 A2981 RMK A01 T02550194  RH  069%=      5-min Rain = 0
KPD3 201434Z 18004KT 26/19 A2981 RMK A01 T02550192  RH  068%=      5-min Rain = 0
KPD3 201435Z 18004KT 26/20 A2981 RMK A01 T02550197  RH  070%=      5-min Rain = 0
KPD3 201436Z 18006KT 26/20 A2981 RMK A01 T02560196  RH  069%=      5-min Rain = 0
KPD3 201437Z 17005KT 26/19 A2981 RMK A01 T02560194  RH  068%=      5-min Rain = 0
KPD3 201438Z 15003KT 26/19 A2981 RMK A01 T02560194  RH  069%=      5-min Rain = 0
KPD3 201439Z 16005KT 26/20 A2981 RMK A01 T02560196  RH  069%=      5-min Rain = 0
KPD3 201440Z 16005KT 26/20 A2981 RMK A01 T02580196  RH  068%=      5-min Rain = 0
KPD3 201441Z 17005KT 26/19 A2981 RMK A01 T02590194  RH  067%=      5-min Rain = 0
KPD3 201442Z 15006KT 26/20 A2981 RMK A01 T02590196  RH  068%=      5-min Rain = 0
KPD3 201443Z 14005KT 26/20 A2981 RMK A01 T02600197  RH  068%=      5-min Rain = 0
KPD3 201444Z 14005KT 26/20 A2981 RMK A01 T02600196  RH  068%=      5-min Rain = 0
KPD3 201445Z 17004KT 26/20 A2981 RMK A01 T02600198  RH  069%=      5-min Rain = 0
KPD3 201446Z 18003KT 26/20 A2981 RMK A01 T02600197  RH  068%=      5-min Rain = 0
KPD3 201447Z 17004KT 26/20 A2981 RMK A01 T02590197  RH  069%=      5-min Rain = 0
KPD3 201448Z 16005KT 26/20 A2981 RMK A01 T02600199  RH  069%=      5-min Rain = 0
KPD3 201449Z 15005KT 26/20 A2981 RMK A01 T02600195  RH  067%=      5-min Rain = 0
KPD3 201450Z 15004KT 26/20 A2981 RMK A01 T02590198  RH  069%=      5-min Rain = 0
KPD3 201451Z 17002KT 26/20 A2981 RMK A01 T02600195  RH  068%=      5-min Rain = 0
KPD3 201452Z 11002KT 26/20 A2981 RMK A01 T02600197  RH  068%=      5-min Rain = 0
KPD3 201453Z 09002KT 26/20 A2981 RMK A01 T02610197  RH  068%=      5-min Rain = 0
KPD3 201454Z 10003KT 26/20 A298 RMK A01 T02610199  RH  069%=      5-min Rain = 0
KPD3 201455Z 14004KT 26/20 A298 RMK A01 T02630201  RH  069%=      5-min Rain = 0
KPD3 201456Z 17002KT 26/20 A298 RMK A01 T02630199  RH  068%=      5-min Rain = 0
KPD3 201457Z 18004KT 27/20 A298 RMK A01 T02650200  RH  067%=      5-min Rain = 0
KPD3 201458Z 18003KT 27/20 A298 RMK A01 T02650197  RH  066%=      5-min Rain = 0
KPD3 201459Z 21002KT 26/20 A298 RMK A01 T02630197  RH  067%=      5-min Rain = 0
KPD3 201500Z 16003KT 26/20 A298 RMK A01 T02620196  RH  067%=      5-min Rain = 0
KPD3 201501Z 15005KT 26/20 A298 RMK A01 T02610198  RH  068%=      5-min Rain = 0
KPD3 201502Z 16005KT 26/20 A298 RMK A01 T02620196  RH  067%=      5-min Rain = 0
KPD3 201503Z 15003KT 26/20 A298 RMK A01 T02610196  RH  067%=      5-min Rain = 0
KPD3 201504Z 13001KT 26/20 A298 RMK A01 T02600195  RH  067%=      5-min Rain = 0
KPD3 201505Z 12001KT 26/20 A298 RMK A01 T02600196  RH  068%=      5-min Rain = 0
KPD3 201506Z 17003KT 26/20 A298 RMK A01 T02610198  RH  068%=      5-min Rain = 0
KPD3 201507Z 14002KT 26/20 A298 RMK A01 T02630201  RH  068%=      5-min Rain = 0
KPD3 201508Z 17002KT 27/20 A298 RMK A01 T02650202  RH  068%=      5-min Rain = 0
KPD3 201509Z 17003KT 27/20 A298 RMK A01 T02660199  RH  067%=      5-min Rain = 0
KPD3 201510Z 15002KT 27/20 A298 RMK A01 T02670197  RH  066%=      5-min Rain = 0
KPD3 201511Z 13003KT 27/20 A298 RMK A01 T02670200  RH  067%=      5-min Rain = 0
KPD3 201512Z 13003KT 27/20 A298 RMK A01 T02670201  RH  067%=      5-min Rain = 0
KPD3 201513Z 11004KT 27/20 A298 RMK A01 T02680201  RH  067%=      5-min Rain = 0
KPD3 201514Z 12003KT 27/20 A298 RMK A01 T02670201  RH  067%=      5-min Rain = 0
KPD3 201515Z 13004KT 27/20 A298 RMK A01 T02670202  RH  068%=      5-min Rain = 0
KPD3 201516Z 16004KT 27/20 A298 RMK A01 T02680204  RH  068%=      5-min Rain = 0
KPD3 201517Z 17004KT 27/20 A298 RMK A01 T02700204  RH  067%=      5-min Rain = 0
KPD3 201518Z 17004KT 27/20 A298 RMK A01 T02710203  RH  067%=      5-min Rain = 0
KPD3 201519Z 15003KT 27/20 A298 RMK A01 T02700202  RH  066%=      5-min Rain = 0
KPD3 201520Z 15004KT 27/20 A298 RMK A01 T02700204  RH  067%=      5-min Rain = 0
KPD3 201521Z 15005KT 27/21 A298 RMK A01 T02720205  RH  067%=      5-min Rain = 0
KPD3 201522Z 13005KT 27/20 A298 RMK A01 T02720204  RH  066%=      5-min Rain = 0
KPD3 201523Z 15004KT 27/20 A298 RMK A01 T02720202  RH  066%=      5-min Rain = 0
KPD3 201524Z 16004KT 27/21 A298 RMK A01 T02720207  RH  068%=      5-min Rain = 0
KPD3 201525Z 16005KT 27/21 A298 RMK A01 T02740208  RH  067%=      5-min Rain = 0
KPD3 201526Z 16003KT 28/20 A298 RMK A01 T02750204  RH  065%=      5-min Rain = 0
KPD3 201527Z 13005KT 28/20 A298 RMK A01 T02750204  RH  065%=      5-min Rain = 0
KPD3 201528Z 14006KT 27/21 A298 RMK A01 T02730205  RH  066%=      5-min Rain = 0
KPD3 201529Z 15006KT 27/20 A298 RMK A01 T02730204  RH  066%=      5-min Rain = 0
KPD3 201530Z 15005KT 27/20 A298 RMK A01 T02730202  RH  065%=      5-min Rain = 0
KPD3 201531Z 13004KT 27/20 A298 RMK A01 T02740200  RH  064%=      5-min Rain = 0
KPD3 201532Z 14003KT 27/20 A298 RMK A01 T02730201  RH  065%=      5-min Rain = 0
KPD3 201533Z 15004KT 27/20 A298 RMK A01 T02730204  RH  066%=      5-min Rain = 0
KPD3 201534Z 15005KT 28/21 A298 RMK A01 T02750207  RH  067%=      5-min Rain = 0
KPD3 201535Z 15004KT 28/21 A298 RMK A01 T02780208  RH  065%=      5-min Rain = 0
KPD3 201536Z 16005KT 28/21 A298 RMK A01 T02800208  RH  065%=      5-min Rain = 0
KPD3 201537Z 18005KT 28/21 A298 RMK A01 T02820208  RH  064%=      5-min Rain = 0
KPD3 201538Z 18003KT 28/21 A298 RMK A01 T02820205  RH  063%=      5-min Rain = 0
KPD3 201539Z 14004KT 28/20 A298 RMK A01 T02810204  RH  063%=      5-min Rain = 0
KPD3 201540Z 16003KT 28/20 A298 RMK A01 T02790203  RH  063%=      5-min Rain = 0
KPD3 201541Z 16002KT 28/20 A298 RMK A01 T02790204  RH  063%=      5-min Rain = 0
KPD3 201542Z 14005KT 28/21 A298 RMK A01 T02790205  RH  064%=      5-min Rain = 0
KPD3 201543Z 15006KT 28/21 A298 RMK A01 T02800206  RH  064%=      5-min Rain = 0
KPD3 201544Z 16005KT 28/20 A298 RMK A01 T02810204  RH  063%=      5-min Rain = 0
KPD3 201545Z 17004KT 28/20 A298 RMK A01 T02800203  RH  063%=      5-min Rain = 0
KPD3 201546Z 14005KT 28/21 A298 RMK A01 T02780205  RH  064%=      5-min Rain = 0
KPD3 201547Z 14006KT 28/20 A298 RMK A01 T02790204  RH  064%=      5-min Rain = 0
KPD3 201548Z 15004KT 28/21 A298 RMK A01 T02800205  RH  064%=      5-min Rain = 0
KPD3 201549Z 16004KT 28/21 A298 RMK A01 T02820205  RH  063%=      5-min Rain = 0
KPD3 201550Z 15005KT 28/21 A298 RMK A01 T02830208  RH  064%=      5-min Rain = 0
KPD3 201551Z 15005KT 28/20 A298 RMK A01 T02840204  RH  062%=      5-min Rain = 0
KPD3 201552Z 17004KT 28/20 A298 RMK A01 T02830204  RH  062%=      5-min Rain = 0
KPD3 201553Z 15005KT 28/20 A298 RMK A01 T02820204  RH  063%=      5-min Rain = 0
KPD3 201554Z 14006KT 28/21 A2979 RMK A01 T02820205  RH  063%=      5-min Rain = 0
KPD3 201555Z 18005KT 28/20 A298 RMK A01 T02830204  RH  062%=      5-min Rain = 0
KPD3 201556Z 15004KT 28/20 A2979 RMK A01 T02830202  RH  062%=      5-min Rain = 0
KPD3 201557Z 13005KT 28/20 A2979 RMK A01 T02810199  RH  061%=      5-min Rain = 0
KPD3 201558Z 15005KT 28/20 A2979 RMK A01 T02790201  RH  062%=      5-min Rain = 0
KPD3 201559Z 19004KT 28/20 A2979 RMK A01 T02790204  RH  064%=      5-min Rain = 0
KPD3 201600Z 19004KT 28/20 A2979 RMK A01 T02800199  RH  061%=      5-min Rain = 0
KPD3 201601Z 20004KT 28/20 A2979 RMK A01 T02790203  RH  063%=      5-min Rain = 0
KPD3 201602Z 21005KT 28/20 A2979 RMK A01 T02800202  RH  063%=      5-min Rain = 0
KPD3 201603Z 19003KT 28/20 A2979 RMK A01 T02810202  RH  062%=      5-min Rain = 0
KPD3 201604Z 16006KT 28/21 A2979 RMK A01 T02830207  RH  063%=      5-min Rain = 0
KPD3 201605Z 14005KT 29/20 A2979 RMK A01 T02850200  RH  060%=      5-min Rain = 0
KPD3 201606Z 14003KT 29/20 A2979 RMK A01 T02850203  RH  061%=      5-min Rain = 0
KPD3 201607Z 17003KT 29/20 A2979 RMK A01 T02850204  RH  062%=      5-min Rain = 0
KPD3 201608Z 21004KT 29/20 A2979 RMK A01 T02860202  RH  060%=      5-min Rain = 0
KPD3 201609Z 20003KT 29/20 A2979 RMK A01 T02860199  RH  059%=      5-min Rain = 0
KPD3 201610Z 18004KT 29/20 A2979 RMK A01 T02850200  RH  060%=      5-min Rain = 0
KPD3 201611Z 16002KT 28/20 A2979 RMK A01 T02840197  RH  059%=      5-min Rain = 0
KPD3 201612Z 11002KT 28/20 A2979 RMK A01 T02840197  RH  059%=      5-min Rain = 0
KPD3 201613Z 12004KT 28/20 A2979 RMK A01 T02840201  RH  061%=      5-min Rain = 0
KPD3 201614Z 13004KT 29/20 A2979 RMK A01 T02850199  RH  060%=      5-min Rain = 0
KPD3 201615Z 12002KT 29/20 A2979 RMK A01 T02860199  RH  059%=      5-min Rain = 0
KPD3 201616Z 09004KT 29/20 A2979 RMK A01 T02860200  RH  060%=      5-min Rain = 0
KPD3 201617Z 10005KT 29/20 A2979 RMK A01 T02860204  RH  061%=      5-min Rain = 0
KPD3 201618Z 11005KT 29/20 A2979 RMK A01 T02880201  RH  059%=      5-min Rain = 0
KPD3 201619Z 15004KT 29/21 A2979 RMK A01 T02880206  RH  061%=      5-min Rain = 0
KPD3 201620Z 14003KT 29/21 A2979 RMK A01 T02910208  RH  061%=      5-min Rain = 0
KPD3 201621Z 16003KT 30/21 A2979 RMK A01 T02950206  RH  059%=      5-min Rain = 0
KPD3 201622Z 15004KT 30/21 A2979 RMK A01 T02970206  RH  058%=      5-min Rain = 0
KPD3 201623Z 14004KT 30/21 A2979 RMK A01 T02980205  RH  057%=      5-min Rain = 0
KPD3 201624Z 15006KT 30/20 A2979 RMK A01 T02960203  RH  057%=      5-min Rain = 0
KPD3 201625Z 15003KT 30/20 A2979 RMK A01 T02950201  RH  057%=      5-min Rain = 0
KPD3 201626Z 12001KT 29/20 A2979 RMK A01 T02930199  RH  057%=      5-min Rain = 0
KPD3 201627Z 11003KT 29/20 A2979 RMK A01 T02920200  RH  058%=      5-min Rain = 0
KPD3 201628Z 16004KT 29/20 A2979 RMK A01 T02920202  RH  059%=      5-min Rain = 0
KPD3 201629Z 16004KT 29/20 A2979 RMK A01 T02930201  RH  058%=      5-min Rain = 0
KPD3 201630Z 17004KT 29/20 A2979 RMK A01 T02940204  RH  058%=      5-min Rain = 0
KPD3 201631Z 18004KT 30/20 A2979 RMK A01 T02950203  RH  058%=      5-min Rain = 0
KPD3 201632Z 18004KT 30/20 A2979 RMK A01 T02960201  RH  057%=      5-min Rain = 0
KPD3 201633Z 18003KT 30/20 A2979 RMK A01 T02960201  RH  056%=      5-min Rain = 0
KPD3 201634Z 18002KT 30/20 A2979 RMK A01 T02950196  RH  055%=      5-min Rain = 0
KPD3 201635Z 13003KT 29/20 A2979 RMK A01 T02930197  RH  056%=      5-min Rain = 0
KPD3 201641Z 16004KT 30/20 A2979 RMK A01 T02990204  RH  057%=      5-min Rain = 0
KPD3 201642Z 17003KT 30/20 A2979 RMK A01 T03000200  RH  055%=      5-min Rain = 0
KPD3 201643Z 11003KT 30/20 A2979 RMK A01 T03000201  RH  055%=      5-min Rain = 0
KPD3 201644Z 11004KT 30/20 A2979 RMK A01 T03010200  RH  055%=      5-min Rain = 0
KPD3 201645Z 16003KT 30/20 A2979 RMK A01 T03010200  RH  055%=      5-min Rain = 0
KPD3 201646Z 15002KT 30/20 A2979 RMK A01 T03020204  RH  056%=      5-min Rain = 0
KPD3 201647Z 19003KT 31/20 A2979 RMK A01 T03050204  RH  055%=      5-min Rain = 0
KPD3 201648Z 19002KT 31/20 A2979 RMK A01 T03070202  RH  053%=      5-min Rain = 0
KPD3 201649Z 16002KT 31/20 A2979 RMK A01 T03090204  RH  054%=      5-min Rain = 0
KPD3 201650Z 16005KT 31/20 A2979 RMK A01 T03110204  RH  053%=      5-min Rain = 0
KPD3 201651Z 16004KT 31/20 A2979 RMK A01 T03110203  RH  053%=      5-min Rain = 0
KPD3 201652Z 15002KT 31/20 A2979 RMK A01 T03110201  RH  052%=      5-min Rain = 0
KPD3 201653Z 14004KT 31/20 A2979 RMK A01 T03100200  RH  052%=      5-min Rain = 0
KPD3 201654Z 14003KT 31/20 A2979 RMK A01 T03090204  RH  054%=      5-min Rain = 0
KPD3 201655Z 15003KT 31/20 A2979 RMK A01 T03090204  RH  053%=      5-min Rain = 0
KPD3 201656Z 16004KT 31/21 A2979 RMK A01 T03090207  RH  055%=      5-min Rain = 0
KPD3 201657Z 17004KT 31/21 A2979 RMK A01 T03100208  RH  055%=      5-min Rain = 0
KPD3 201658Z 18004KT 31/20 A2979 RMK A01 T03100200  RH  052%=      5-min Rain = 0
KPD3 201659Z 17002KT 31/20 A2979 RMK A01 T03070202  RH  054%=      5-min Rain = 0
KPD3 201700Z 12004KT 31/20 A2979 RMK A01 T03070204  RH  054%=      5-min Rain = 0
KPD3 201701Z 12005KT 31/20 A2979 RMK A01 T03080204  RH  054%=      5-min Rain = 0
KPD3 201702Z 13005KT 31/21 A2979 RMK A01 T03080208  RH  055%=      5-min Rain = 0
KPD3 201703Z 14005KT 31/20 A2979 RMK A01 T03080203  RH  053%=      5-min Rain = 0
KPD3 201704Z 12006KT 31/20 A2979 RMK A01 T03090203  RH  053%=      5-min Rain = 0
KPD3 201705Z 11004KT 31/21 A2979 RMK A01 T03070207  RH  055%=      5-min Rain = 0
KPD3 201706Z 10003KT 31/20 A2979 RMK A01 T03080204  RH  054%=      5-min Rain = 0
KPD3 201707Z 09003KT 31/20 A2979 RMK A01 T03070201  RH  053%=      5-min Rain = 0
KPD3 201708Z 09003KT 31/20 A2979 RMK A01 T03070202  RH  053%=      5-min Rain = 0
KPD3 201709Z 14005KT 31/21 A2979 RMK A01 T03070206  RH  055%=      5-min Rain = 0
KPD3 201710Z 18005KT 31/20 A2979 RMK A01 T03090202  RH  053%=      5-min Rain = 0
KPD3 201711Z 17005KT 31/20 A2979 RMK A01 T03100200  RH  052%=      5-min Rain = 0
KPD3 201712Z 16004KT 31/20 A2979 RMK A01 T03100201  RH  052%=      5-min Rain = 0
KPD3 201713Z 16003KT 31/20 A2979 RMK A01 T03100199  RH  052%=      5-min Rain = 0
KPD3 201714Z 13002KT 31/20 A2979 RMK A01 T03100201  RH  052%=      5-min Rain = 0
KPD3 201715Z 15004KT 31/20 A2979 RMK A01 T03100200  RH  052%=      5-min Rain = 0
KPD3 201716Z 15003KT 31/20 A2979 RMK A01 T03110201  RH  052%=      5-min Rain = 0
KPD3 201717Z 14002KT 31/21 A2979 RMK A01 T03110205  RH  053%=      5-min Rain = 0
KPD3 201718Z 13004KT 31/21 A2979 RMK A01 T03120208  RH  054%=      5-min Rain = 0
KPD3 201719Z 10006KT 32/21 A2979 RMK A01 T03150205  RH  052%=      5-min Rain = 0
KPD3 201720Z 11005KT 31/20 A2979 RMK A01 T03140204  RH  052%=      5-min Rain = 0
KPD3 201721Z 13005KT 31/21 A2979 RMK A01 T03130208  RH  053%=      5-min Rain = 0
KPD3 201722Z 14007KT 31/21 A2979 RMK A01 T03140209  RH  054%=      5-min Rain = 0
KPD3 201723Z 16006KT 32/21 A2979 RMK A01 T03150205  RH  052%=      5-min Rain = 0
KPD3 201724Z 16004KT 32/20 A2979 RMK A01 T03150204  RH  052%=      5-min Rain = 0
KPD3 201725Z 15006KT 31/21 A2979 RMK A01 T03140206  RH  053%=      5-min Rain = 0
KPD3 201726Z 15005KT 31/21 A2979 RMK A01 T03140205  RH  052%=      5-min Rain = 0
KPD3 201727Z 18003KT 31/20 A2979 RMK A01 T03140202  RH  051%=      5-min Rain = 0
KPD3 201728Z 16003KT 32/21 A2979 RMK A01 T03150206  RH  052%=      5-min Rain = 0
KPD3 201729Z 17002KT 32/21 A2979 RMK A01 T03160205  RH  052%=      5-min Rain = 0
KPD3 201730Z 15005KT 32/21 A2979 RMK A01 T03170205  RH  052%=      5-min Rain = 0
KPD3 201731Z 15004KT 32/20 A2979 RMK A01 T03170200  RH  050%=      5-min Rain = 0
KPD3 201732Z 15004KT 32/20 A2979 RMK A01 T03150201  RH  051%=      5-min Rain = 0
KPD3 201733Z 16004KT 32/21 A2979 RMK A01 T03150205  RH  052%=      5-min Rain = 0
KPD3 201734Z 16003KT 32/20 A2979 RMK A01 T03170199  RH  050%=      5-min Rain = 0
KPD3 201735Z 17005KT 32/20 A2979 RMK A01 T03180198  RH  049%=      5-min Rain = 0
KPD3 201736Z 16004KT 32/20 A2979 RMK A01 T03180196  RH  049%=      5-min Rain = 0
KPD3 201737Z 17003KT 32/19 A2979 RMK A01 T03170194  RH  048%=      5-min Rain = 0
KPD3 201738Z 17008KT 32/20 A2979 RMK A01 T03160202  RH  051%=      5-min Rain = 0
KPD3 201739Z 18006KT 32/21 A2979 RMK A01 T03180206  RH  051%=      5-min Rain = 0
KPD3 201740Z 18006KT 32/21 A2979 RMK A01 T03200208  RH  051%=      5-min Rain = 0
KPD3 201741Z 17007KT 32/20 A2979 RMK A01 T03220204  RH  050%=      5-min Rain = 0
KPD3 201742Z 16007KT 32/20 A2979 RMK A01 T03220203  RH  050%=      5-min Rain = 0
KPD3 201743Z 15007KT 32/21 A2979 RMK A01 T03210206  RH  051%=      5-min Rain = 0
KPD3 201744Z 16008KT 32/21 A2979 RMK A01 T03200210  RH  052%=      5-min Rain = 0
KPD3 201745Z 16006KT 32/21 A2979 RMK A01 T03220210  RH  052%=      5-min Rain = 0
KPD3 201746Z 14007KT 32/21 A2979 RMK A01 T03220208  RH  051%=      5-min Rain = 0
KPD3 201747Z 13006KT 32/20 A2979 RMK A01 T03230203  RH  049%=      5-min Rain = 0
KPD3 201748Z 14006KT 32/21 A2979 RMK A01 T03230206  RH  050%=      5-min Rain = 0
KPD3 201749Z 14005KT 32/21 A2979 RMK A01 T03230208  RH  051%=      5-min Rain = 0
KPD3 201750Z 14003KT 32/20 A2979 RMK A01 T03230203  RH  049%=      5-min Rain = 0
KPD3 201751Z 17006KT 32/21 A2979 RMK A01 T03210207  RH  051%=      5-min Rain = 0
KPD3 201752Z 16006KT 32/20 A2979 RMK A01 T03220198  RH  048%=      5-min Rain = 0
KPD3 201753Z 17005KT 32/20 A2979 RMK A01 T03220200  RH  049%=      5-min Rain = 0
KPD3 201754Z 17005KT 32/21 A2979 RMK A01 T03210206  RH  051%=      5-min Rain = 0
KPD3 201755Z 14007KT 32/21 A2979 RMK A01 T03240207  RH  050%=      5-min Rain = 0
KPD3 201756Z 14006KT 33/21 A2979 RMK A01 T03250207  RH  050%=      5-min Rain = 0
KPD3 201757Z 17007KT 33/21 A2979 RMK A01 T03250208  RH  050%=      5-min Rain = 0
KPD3 201758Z 16006KT 33/20 A2979 RMK A01 T03260204  RH  049%=      5-min Rain = 0
KPD3 201759Z 15005KT 33/21 A2979 RMK A01 T03250210  RH  051%=      5-min Rain = 0
KPD3 201800Z 17005KT 33/21 A2979 RMK A01 T03270213  RH  051%=      5-min Rain = 0
KPD3 201801Z 16005KT 33/21 A2979 RMK A01 T03280205  RH  049%=      5-min Rain = 0
KPD3 201802Z 15003KT 33/21 A2979 RMK A01 T03270208  RH  050%=      5-min Rain = 0
KPD3 201803Z 14007KT 33/21 A2979 RMK A01 T03280208  RH  049%=      5-min Rain = 0
KPD3 201804Z 14007KT 33/20 A2979 RMK A01 T03290203  RH  048%=      5-min Rain = 0
KPD3 201805Z 15006KT 33/21 A2979 RMK A01 T03280207  RH  049%=      5-min Rain = 0
KPD3 201806Z 15006KT 33/21 A2979 RMK A01 T03290210  RH  050%=      5-min Rain = 0
KPD3 201807Z 14006KT 33/20 A2979 RMK A01 T03290204  RH  048%=      5-min Rain = 0
KPD3 201808Z 12007KT 33/21 A2979 RMK A01 T03270208  RH  049%=      5-min Rain = 0
KPD3 201809Z 13005KT 33/20 A2979 RMK A01 T03260203  RH  048%=      5-min Rain = 0
KPD3 201810Z 11005KT 33/21 A2979 RMK A01 T03250205  RH  049%=      5-min Rain = 0
KPD3 201811Z 14007KT 32/21 A2979 RMK A01 T03240207  RH  050%=      5-min Rain = 0
KPD3 201812Z 14005KT 33/20 A2979 RMK A01 T03250204  RH  049%=      5-min Rain = 0
KPD3 201813Z 15003KT 33/20 A2979 RMK A01 T03270202  RH  048%=      5-min Rain = 0
KPD3 201814Z 15003KT 33/20 A2979 RMK A01 T03270202  RH  048%=      5-min Rain = 0
KPD3 201815Z 11007KT 33/21 A2979 RMK A01 T03280209  RH  050%=      5-min Rain = 0
KPD3 201816Z 12008KT 33/21 A2979 RMK A01 T03290207  RH  049%=      5-min Rain = 0
KPD3 201817Z 14006KT 33/20 A2979 RMK A01 T03270204  RH  048%=      5-min Rain = 0
KPD3 201818Z 15004KT 33/21 A2979 RMK A01 T03260206  RH  049%=      5-min Rain = 0
KPD3 201819Z 15005KT 33/21 A2979 RMK A01 T03290206  RH  049%=      5-min Rain = 0
KPD3 201820Z 15004KT 33/20 A2979 RMK A01 T03300199  RH  046%=      5-min Rain = 0
KPD3 201821Z 13001KT 33/21 A2979 RMK A01 T03300206  RH  048%=      5-min Rain = 0
KPD3 201822Z 15002KT 33/21 A2978 RMK A01 T03310206  RH  048%=      5-min Rain = 0
KPD3 201823Z 12001KT 33/21 A2978 RMK A01 T03330210  RH  048%=      5-min Rain = 0
KPD3 201824Z 12001KT 33/21 A2978 RMK A01 T03340205  RH  047%=      5-min Rain = 0
KPD3 201825Z 10003KT 33/21 A2978 RMK A01 T03330206  RH  047%=      5-min Rain = 0
KPD3 201826Z 11005KT 33/21 A2978 RMK A01 T03330211  RH  049%=      5-min Rain = 0
KPD3 201827Z 14008KT 33/21 A2978 RMK A01 T03340206  RH  047%=      5-min Rain = 0
KPD3 201828Z 14008KT 34/21 A2978 RMK A01 T03360205  RH  046%=      5-min Rain = 0
KPD3 201829Z 14006KT 34/20 A2978 RMK A01 T03370202  RH  045%=      5-min Rain = 0
KPD3 201830Z 14006KT 34/21 A2978 RMK A01 T03370206  RH  046%=      5-min Rain = 0
KPD3 201831Z 13006KT 34/20 A2978 RMK A01 T03380203  RH  045%=      5-min Rain = 0
KPD3 201832Z 12004KT 34/20 A2978 RMK A01 T03370201  RH  045%=      5-min Rain = 0
KPD3 201833Z 11004KT 34/21 A2978 RMK A01 T03370208  RH  047%=      5-min Rain = 0
KPD3 201834Z 13006KT 34/21 A2978 RMK A01 T03380205  RH  046%=      5-min Rain = 0
KPD3 201835Z 14005KT 34/20 A2978 RMK A01 T03390202  RH  045%=      5-min Rain = 0
KPD3 201836Z 14004KT 34/20 A2978 RMK A01 T03390201  RH  044%=      5-min Rain = 0
KPD3 201837Z 13003KT 34/20 A2978 RMK A01 T03390199  RH  044%=      5-min Rain = 0
KPD3 201838Z 13007KT 34/21 A2977 RMK A01 T03400207  RH  046%=      5-min Rain = 0
KPD3 201839Z 14007KT 34/20 A2978 RMK A01 T03410200  RH  044%=      5-min Rain = 0
KPD3 201840Z 15004KT 34/20 A2977 RMK A01 T03390199  RH  044%=      5-min Rain = 0
KPD3 201841Z 14004KT 34/20 A2977 RMK A01 T03380200  RH  044%=      5-min Rain = 0
KPD3 201842Z 11005KT 34/21 A2977 RMK A01 T03390208  RH  046%=      5-min Rain = 0
KPD3 201843Z 12008KT 34/21 A2977 RMK A01 T03430205  RH  045%=      5-min Rain = 0
KPD3 201844Z 10007KT 34/20 A2977 RMK A01 T03420204  RH  044%=      5-min Rain = 0
KPD3 201845Z 11006KT 34/21 A2977 RMK A01 T03410206  RH  045%=      5-min Rain = 0
KPD3 201846Z 15006KT 34/20 A2977 RMK A01 T03400202  RH  044%=      5-min Rain = 0
KPD3 201847Z 14002KT 34/20 A2977 RMK A01 T03400201  RH  044%=      5-min Rain = 0
KPD3 201848Z 14004KT 34/20 A2977 RMK A01 T03410202  RH  044%=      5-min Rain = 0
KPD3 201849Z 13006KT 34/20 A2977 RMK A01 T03430201  RH  044%=      5-min Rain = 0
KPD3 201850Z 13006KT 34/20 A2977 RMK A01 T03440199  RH  043%=      5-min Rain = 0
KPD3 201851Z 11004KT 35/20 A2977 RMK A01 T03450201  RH  043%=      5-min Rain = 0
KPD3 201852Z 14006KT 35/20 A2977 RMK A01 T03450199  RH  042%=      5-min Rain = 0
KPD3 201853Z 14006KT 35/20 A2977 RMK A01 T03470198  RH  042%=      5-min Rain = 0
KPD3 201854Z 13005KT 35/19 A2977 RMK A01 T03490193  RH  040%=      5-min Rain = 0
KPD3 201855Z 14005KT 35/19 A2977 RMK A01 T03480192  RH  040%=      5-min Rain = 0
KPD3 201856Z 15005KT 35/20 A2977 RMK A01 T03480198  RH  041%=      5-min Rain = 0
KPD3 201857Z 12008KT 35/20 A2977 RMK A01 T03500204  RH  043%=      5-min Rain = 0
KPD3 201858Z 12007KT 35/20 A2977 RMK A01 T03510203  RH  042%=      5-min Rain = 0
KPD3 201859Z 12006KT 35/20 A2977 RMK A01 T03510204  RH  042%=      5-min Rain = 0
KPD3 201900Z 13005KT 35/21 A2977 RMK A01 T03520207  RH  043%=      5-min Rain = 0
KPD3 201901Z 14010KT 35/20 A2977 RMK A01 T03540202  RH  041%=      5-min Rain = 0
KPD3 201902Z 13006KT 35/20 A2977 RMK A01 T03530196  RH  040%=      5-min Rain = 0
KPD3 201903Z 13007KT 35/20 A2977 RMK A01 T03510200  RH  041%=      5-min Rain = 0
KPD3 201904Z 11008KT 35/20 A2977 RMK A01 T03510195  RH  040%=      5-min Rain = 0
KPD3 201905Z 10007KT 35/20 A2977 RMK A01 T03490200  RH  042%=      5-min Rain = 0
KPD3 201906Z 12009KT 35/20 A2977 RMK A01 T03470204  RH  043%=      5-min Rain = 0
KPD3 201907Z 11010KT 35/20 A2977 RMK A01 T03490200  RH  042%=      5-min Rain = 0
KPD3 201908Z 11011KT 35/20 A2976 RMK A01 T03480202  RH  042%=      5-min Rain = 0
KPD3 201909Z 11008KT 35/20 A2976 RMK A01 T03470204  RH  043%=      5-min Rain = 0
KPD3 201910Z 13010KT 35/20 A2976 RMK A01 T03470202  RH  043%=      5-min Rain = 0
KPD3 201911Z 13009KT 35/20 A2976 RMK A01 T03490204  RH  043%=      5-min Rain = 0
KPD3 201912Z 14012KT 35/20 A2977 RMK A01 T03500197  RH  041%=      5-min Rain = 0
KPD3 201913Z 15007KT 35/19 A2976 RMK A01 T03490193  RH  040%=      5-min Rain = 0
KPD3 201914Z 12006KT 35/19 A2976 RMK A01 T03470194  RH  041%=      5-min Rain = 0
KPD3 201915Z 13007KT 35/19 A2976 RMK A01 T03470193  RH  040%=      5-min Rain = 0
KPD3 201916Z 14007KT 35/19 A2976 RMK A01 T03480194  RH  040%=      5-min Rain = 0
KPD3 201917Z 14008KT 35/20 A2976 RMK A01 T03520202  RH  042%=      5-min Rain = 0
KPD3 201918Z 13007KT 35/20 A2976 RMK A01 T03540197  RH  040%=      5-min Rain = 0
KPD3 201919Z 13009KT 36/20 A2976 RMK A01 T03550199  RH  040%=      5-min Rain = 0
KPD3 201920Z 13011KT 36/20 A2976 RMK A01 T03560199  RH  040%=      5-min Rain = 0
KPD3 201921Z 11007KT 35/20 A2976 RMK A01 T03540198  RH  040%=      5-min Rain = 0
KPD3 201922Z 11009KT 35/20 A2976 RMK A01 T03520197  RH  040%=      5-min Rain = 0
KPD3 201923Z 10006KT 35/20 A2976 RMK A01 T03510197  RH  040%=      5-min Rain = 0
KPD3 201924Z 10008KT 35/20 A2976 RMK A01 T03500198  RH  041%=      5-min Rain = 0
KPD3 201925Z 12008KT 35/20 A2976 RMK A01 T03500195  RH  040%=      5-min Rain = 0
KPD3 201926Z 15007KT 35/19 A2976 RMK A01 T03500189  RH  039%=      5-min Rain = 0
KPD3 201927Z 13004KT 35/19 A2976 RMK A01 T03520191  RH  039%=      5-min Rain = 0
KPD3 201928Z 11007KT 35/19 A2976 RMK A01 T03540191  RH  038%=      5-min Rain = 0
KPD3 201929Z 12007KT 35/19 A2976 RMK A01 T03540190  RH  038%=      5-min Rain = 0
KPD3 201930Z 13006KT 35/19 A2976 RMK A01 T03540186  RH  037%=      5-min Rain = 0
KPD3 201931Z 12008KT 35/19 A2976 RMK A01 T03530190  RH  038%=      5-min Rain = 0
KPD3 201932Z 10008KT 36/19 A2976 RMK A01 T03550186  RH  037%=      5-min Rain = 0
KPD3 201933Z 11007KT 36/19 A2976 RMK A01 T03550186  RH  037%=      5-min Rain = 0
KPD3 201934Z 13009KT 36/20 A2976 RMK A01 T03560197  RH  039%=      5-min Rain = 0
KPD3 201935Z 12009KT 36/19 A2975 RMK A01 T03590194  RH  038%=      5-min Rain = 0
KPD3 201936Z 14011KT 36/20 A2975 RMK A01 T03630196  RH  038%=      5-min Rain = 0
KPD3 201937Z 14012KT 37/19 A2976 RMK A01 T03650189  RH  036%=      5-min Rain = 0
KPD3 201938Z 13010KT 36/19 A2976 RMK A01 T03630187  RH  036%=      5-min Rain = 0
KPD3 201939Z 13007KT 36/19 A2976 RMK A01 T03620187  RH  036%=      5-min Rain = 0
KPD3 201940Z 12009KT 36/19 A2975 RMK A01 T03610189  RH  037%=      5-min Rain = 0
KPD3 201941Z 14011KT 36/20 A2975 RMK A01 T03610195  RH  038%=      5-min Rain = 0
KPD3 201942Z 13009KT 36/20 A2975 RMK A01 T03630198  RH  038%=      5-min Rain = 0
KPD3 201943Z 10008KT 36/19 A2975 RMK A01 T03640194  RH  037%=      5-min Rain = 0
KPD3 201944Z 10011KT 36/19 A2975 RMK A01 T03610194  RH  038%=      5-min Rain = 0
KPD3 201945Z 09008KT 36/20 A2975 RMK A01 T03590195  RH  038%=      5-min Rain = 0
KPD3 201946Z 11009KT 36/20 A2975 RMK A01 T03580199  RH  040%=      5-min Rain = 0
KPD3 201947Z 11010KT 36/20 A2975 RMK A01 T03600197  RH  038%=      5-min Rain = 0
KPD3 201948Z 12010KT 36/19 A2975 RMK A01 T03620191  RH  037%=      5-min Rain = 0
KPD3 201949Z 14010KT 36/19 A2975 RMK A01 T03620193  RH  037%=      5-min Rain = 0
KPD3 201950Z 14008KT 36/19 A2975 RMK A01 T03620186  RH  036%=      5-min Rain = 0
KPD3 201951Z 12008KT 36/19 A2975 RMK A01 T03620189  RH  036%=      5-min Rain = 0
KPD3 201952Z 13012G17KT 36/19 A2975 RMK A01 T03620189  RH  036%=      5-min Rain = 0
KPD3 201953Z 11011KT 36/19 A2975 RMK A01 T03620186  RH  036%=      5-min Rain = 0
KPD3 201954Z 12011KT 36/19 A2975 RMK A01 T03610193  RH  038%=      5-min Rain = 0
KPD3 201955Z 13010KT 36/20 A2975 RMK A01 T03630196  RH  038%=      5-min Rain = 0
KPD3 201956Z 14010KT 37/19 A2975 RMK A01 T03650194  RH  037%=      5-min Rain = 0
KPD3 201957Z 15009KT 37/20 A2975 RMK A01 T03660196  RH  037%=      5-min Rain = 0
KPD3 201958Z 14011KT 37/19 A2975 RMK A01 T03680190  RH  036%=      5-min Rain = 0
KPD3 201959Z 13011KT 37/19 A2975 RMK A01 T03660187  RH  035%=      5-min Rain = 0
KPD3 202000Z 13009KT 37/19 A2975 RMK A01 T03660190  RH  036%=      5-min Rain = 0
KPD3 202001Z 13007KT 37/20 A2975 RMK A01 T03660196  RH  037%=      5-min Rain = 0
KPD3 202002Z 13008KT 37/20 A2974 RMK A01 T03680201  RH  038%=      5-min Rain = 0
KPD3 202003Z 13012KT 37/20 A2974 RMK A01 T03690200  RH  037%=      5-min Rain = 0
KPD3 202004Z 12013KT 37/20 A2974 RMK A01 T03690195  RH  036%=      5-min Rain = 0
KPD3 202005Z 14012KT 37/19 A2974 RMK A01 T03690192  RH  036%=      5-min Rain = 0
KPD3 202006Z 12012KT 37/19 A2974 RMK A01 T03690191  RH  036%=      5-min Rain = 0
KPD3 202007Z 12011KT 37/19 A2974 RMK A01 T03690185  RH  034%=      5-min Rain = 0
KPD3 202008Z 13010KT 37/19 A2974 RMK A01 T03680191  RH  036%=      5-min Rain = 0
KPD3 202009Z 13012KT 37/19 A2974 RMK A01 T03680190  RH  035%=      5-min Rain = 0
KPD3 202010Z 13011KT 37/19 A2974 RMK A01 T03680193  RH  036%=      5-min Rain = 0
KPD3 202011Z 12012KT 37/19 A2974 RMK A01 T03690186  RH  034%=      5-min Rain = 0
KPD3 202012Z 12012KT 37/18 A2974 RMK A01 T03670184  RH  034%=      5-min Rain = 0
KPD3 202013Z 12011G17KT 37/19 A2974 RMK A01 T03660188  RH  035%=      5-min Rain = 0
KPD3 202014Z 13012KT 37/19 A2974 RMK A01 T03670189  RH  035%=      5-min Rain = 0
KPD3 202015Z 12011KT 37/19 A2974 RMK A01 T03680188  RH  035%=      5-min Rain = 0
KPD3 202016Z 12013KT 37/19 A2974 RMK A01 T03690188  RH  035%=      5-min Rain = 0
KPD3 202017Z 12011KT 37/18 A2974 RMK A01 T03690182  RH  033%=      5-min Rain = 0
KPD3 202018Z 11011KT 37/18 A2974 RMK A01 T03690184  RH  034%=      5-min Rain = 0
KPD3 202019Z 11012KT 37/19 A2973 RMK A01 T03690188  RH  035%=      5-min Rain = 0
KPD3 202020Z 13013KT 37/18 A2973 RMK A01 T03700180  RH  033%=      5-min Rain = 0
KPD3 202021Z 12011KT 37/18 A2973 RMK A01 T03710184  RH  034%=      5-min Rain = 0
KPD3 202022Z 11010KT 37/19 A2973 RMK A01 T03740185  RH  033%=      5-min Rain = 0
KPD3 202023Z 13012KT 38/19 A2973 RMK A01 T03750187  RH  034%=      5-min Rain = 0
KPD3 202024Z 13013KT 37/18 A2973 RMK A01 T03740182  RH  033%=      5-min Rain = 0
KPD3 202025Z 14014KT 37/18 A2973 RMK A01 T03720180  RH  032%=      5-min Rain = 0
KPD3 202026Z 13012KT 37/18 A2973 RMK A01 T03720182  RH  033%=      5-min Rain = 0
KPD3 202027Z 13011KT 37/18 A2973 RMK A01 T03720184  RH  033%=      5-min Rain = 0
KPD3 202028Z 14011KT 37/18 A2973 RMK A01 T03730184  RH  033%=      5-min Rain = 0
KPD3 202029Z 12013KT 37/19 A2973 RMK A01 T03740186  RH  033%=      5-min Rain = 0
KPD3 202030Z 12013KT 38/19 A2973 RMK A01 T03760185  RH  033%=      5-min Rain = 0
KPD3 202031Z 11015KT 37/19 A2973 RMK A01 T03740186  RH  033%=      5-min Rain = 0
KPD3 202032Z 14014KT 37/18 A2973 RMK A01 T03740184  RH  033%=      5-min Rain = 0
KPD3 202033Z 13012KT 37/18 A2973 RMK A01 T03740180  RH  032%=      5-min Rain = 0
KPD3 202034Z 13012KT 37/19 A2973 RMK A01 T03730187  RH  034%=      5-min Rain = 0
KPD3 202035Z 12013KT 37/18 A2973 RMK A01 T03730184  RH  033%=      5-min Rain = 0
KPD3 202036Z 12012KT 37/18 A2973 RMK A01 T03720182  RH  033%=      5-min Rain = 0
KPD3 202037Z 12012KT 37/18 A2973 RMK A01 T03730183  RH  033%=      5-min Rain = 0
KPD3 202038Z 13012KT 37/18 A2973 RMK A01 T03740180  RH  032%=      5-min Rain = 0
KPD3 202039Z 13011KT 38/19 A2972 RMK A01 T03760186  RH  033%=      5-min Rain = 0
KPD3 202040Z 13013KT 38/18 A2972 RMK A01 T03790180  RH  031%=      5-min Rain = 0
KPD3 202041Z 12012KT 38/18 A2972 RMK A01 T03790179  RH  031%=      5-min Rain = 0
KPD3 202042Z 14011KT 38/18 A2972 RMK A01 T03780175  RH  030%=      5-min Rain = 0
KPD3 202043Z 14011KT 38/17 A2972 RMK A01 T03770173  RH  030%=      5-min Rain = 0
KPD3 202044Z 12010KT 38/18 A2972 RMK A01 T03780177  RH  031%=      5-min Rain = 0
KPD3 202045Z 14011KT 38/17 A2972 RMK A01 T03800172  RH  030%=      5-min Rain = 0
KPD3 202046Z 14011KT 38/17 A2972 RMK A01 T03790170  RH  029%=      5-min Rain = 0
KPD3 202047Z 13013KT 38/17 A2972 RMK A01 T03800174  RH  030%=      5-min Rain = 0
KPD3 202048Z 13013KT 38/17 A2972 RMK A01 T03810170  RH  029%=      5-min Rain = 0
KPD3 202049Z 14013KT 38/17 A2972 RMK A01 T03820170  RH  029%=      5-min Rain = 0
KPD3 202050Z 13014KT 38/18 A2972 RMK A01 T03810175  RH  030%=      5-min Rain = 0
KPD3 202051Z 13012KT 38/17 A2972 RMK A01 T03820170  RH  029%=      5-min Rain = 0
KPD3 202052Z 13014KT 38/17 A2972 RMK A01 T03810168  RH  029%=      5-min Rain = 0
KPD3 202053Z 12012KT 38/17 A2972 RMK A01 T03790173  RH  030%=      5-min Rain = 0
KPD3 202054Z 12010G16KT 38/17 A2972 RMK A01 T03760174  RH  031%=      5-min Rain = 0
KPD3 202055Z 12009KT 38/18 A2972 RMK A01 T03780180  RH  031%=      5-min Rain = 0
KPD3 202056Z 13009KT 38/18 A2972 RMK A01 T03800175  RH  030%=      5-min Rain = 0
KPD3 202057Z 12008KT 38/17 A2972 RMK A01 T03770171  RH  030%=      5-min Rain = 0
KPD3 202058Z 13007KT 38/18 A2972 RMK A01 T03750177  RH  031%=      5-min Rain = 0
KPD3 202059Z 13010G15KT 38/18 A2972 RMK A01 T03780176  RH  031%=      5-min Rain = 0
KPD3 202100Z 13014KT 38/18 A2972 RMK A01 T03800175  RH  030%=      5-min Rain = 0
KPD3 202101Z 14012KT 38/18 A2972 RMK A01 T03810176  RH  030%=      5-min Rain = 0
KPD3 202102Z 13010KT 38/18 A2972 RMK A01 T03830175  RH  030%=      5-min Rain = 0
KPD3 202103Z 13012KT 38/17 A2972 RMK A01 T03840173  RH  029%=      5-min Rain = 0
KPD3 202104Z 12013KT 38/17 A2972 RMK A01 T03830168  RH  028%=      5-min Rain = 0
KPD3 202105Z 13012KT 38/18 A2972 RMK A01 T03810176  RH  030%=      5-min Rain = 0
KPD3 202106Z 12012KT 38/17 A2972 RMK A01 T03810171  RH  029%=      5-min Rain = 0
KPD3 202107Z 12012KT 38/17 A2972 RMK A01 T03800173  RH  030%=      5-min Rain = 0
KPD3 202108Z 12013KT 38/17 A2972 RMK A01 T03780168  RH  029%=      5-min Rain = 0
KPD3 202109Z 13013KT 37/17 A2972 RMK A01 T03740171  RH  030%=      5-min Rain = 0
KPD3 202110Z 12013KT 37/17 A2971 RMK A01 T03700168  RH  030%=      5-min Rain = 0
KPD3 202111Z 13011KT 37/17 A2971 RMK A01 T03670168  RH  031%=      5-min Rain = 0
KPD3 202112Z 13011G16KT 36/17 A2971 RMK A01 T03640170  RH  032%=      5-min Rain = 0
KPD3 202113Z 13012KT 36/17 A2971 RMK A01 T03630166  RH  031%=      5-min Rain = 0
KPD3 202114Z 12012KT 36/17 A2971 RMK A01 T03620165  RH  031%=      5-min Rain = 0
KPD3 202115Z 12013KT 36/17 A2971 RMK A01 T03630167  RH  031%=      5-min Rain = 0
KPD3 202116Z 13013KT 37/17 A2971 RMK A01 T03680169  RH  031%=      5-min Rain = 0
KPD3 202117Z 13012KT 37/16 A2971 RMK A01 T03740162  RH  029%=      5-min Rain = 0
KPD3 202118Z 12011KT 38/16 A2971 RMK A01 T03780163  RH  028%=      5-min Rain = 0
KPD3 202119Z 12011KT 38/17 A2971 RMK A01 T03790171  RH  029%=      5-min Rain = 0
KPD3 202120Z 14015KT 38/17 A2971 RMK A01 T03820166  RH  028%=      5-min Rain = 0
KPD3 202121Z 15013G18KT 38/16 A297 RMK A01 T03830159  RH  027%=      5-min Rain = 0
KPD3 202122Z 13013KT 38/17 A297 RMK A01 T03830170  RH  029%=      5-min Rain = 0
KPD3 202123Z 13016KT 38/17 A297 RMK A01 T03820166  RH  028%=      5-min Rain = 0
KPD3 202124Z 13015KT 38/16 A297 RMK A01 T03790160  RH  027%=      5-min Rain = 0
KPD3 202125Z 13015KT 38/15 A297 RMK A01 T03780153  RH  027%=      5-min Rain = 0
KPD3 202126Z 13015KT 37/15 A297 RMK A01 T03740151  RH  027%=      5-min Rain = 0
KPD3 202127Z 12016KT 37/15 A297 RMK A01 T03740153  RH  027%=      5-min Rain = 0
KPD3 202128Z 13016KT 38/16 A297 RMK A01 T03770157  RH  027%=      5-min Rain = 0
KPD3 202129Z 12014KT 38/15 A297 RMK A01 T03800154  RH  026%=      5-min Rain = 0
KPD3 202130Z 14014KT 38/16 A297 RMK A01 T03810157  RH  027%=      5-min Rain = 0
KPD3 202131Z 14014KT 38/16 A297 RMK A01 T03810155  RH  026%=      5-min Rain = 0
KPD3 202132Z 13015KT 38/15 A297 RMK A01 T03820147  RH  025%=      5-min Rain = 0
KPD3 202133Z 13014KT 38/14 A297 RMK A01 T03840142  RH  024%=      5-min Rain = 0
KPD3 202134Z 13011KT 39/15 A297 RMK A01 T03850154  RH  026%=      5-min Rain = 0
KPD3 202135Z 13013KT 39/16 A297 RMK A01 T03860161  RH  027%=      5-min Rain = 0
KPD3 202136Z 14013KT 39/15 A297 RMK A01 T03870154  RH  025%=      5-min Rain = 0
KPD3 202137Z 13012KT 39/15 A297 RMK A01 T03870154  RH  025%=      5-min Rain = 0
KPD3 202138Z 13014KT 39/15 A297 RMK A01 T03880154  RH  025%=      5-min Rain = 0
KPD3 202139Z 13013KT 39/15 A297 RMK A01 T03890154  RH  025%=      5-min Rain = 0
KPD3 202140Z 13012KT 39/15 A297 RMK A01 T03890145  RH  024%=      5-min Rain = 0
KPD3 202141Z 14011KT 39/14 A297 RMK A01 T03890137  RH  023%=      5-min Rain = 0
KPD3 202142Z 14011KT 39/14 A297 RMK A01 T03870138  RH  023%=      5-min Rain = 0
KPD3 202143Z 13011KT 39/14 A297 RMK A01 T03860144  RH  024%=      5-min Rain = 0
KPD3 202144Z 12011KT 38/15 A297 RMK A01 T03840152  RH  025%=      5-min Rain = 0
KPD3 202145Z 12009KT 38/15 A297 RMK A01 T03840152  RH  025%=      5-min Rain = 0
KPD3 202146Z 13012KT 39/15 A297 RMK A01 T03860148  RH  025%=      5-min Rain = 0
KPD3 202147Z 13016KT 38/14 A297 RMK A01 T03840137  RH  023%=      5-min Rain = 0
KPD3 202148Z 14015KT 38/13 A297 RMK A01 T03830127  RH  022%=      5-min Rain = 0
KPD3 202149Z 13006G11KT 38/08 A297 RMK A01 T03820081  RH  016%=      5-min Rain = 0
KPD3 202150Z 10007KT 38/08 A297 RMK A01 T03800083  RH  017%=      5-min Rain = 0
KPD3 202151Z 11008KT 38/13 A297 RMK A01 T03770125  RH  022%=      5-min Rain = 0
KPD3 202152Z 13006KT 37/15 A297 RMK A01 T03730147  RH  026%=      5-min Rain = 0
KPD3 202153Z 14007KT 37/15 A297 RMK A01 T03700149  RH  027%=      5-min Rain = 0
KPD3 202154Z 12010KT 37/14 A297 RMK A01 T03700141  RH  026%=      5-min Rain = 0
KPD3 202155Z 13011KT 37/12 A297 RMK A01 T03680122  RH  023%=      5-min Rain = 0
KPD3 202156Z 14010KT 37/12 A297 RMK A01 T03680124  RH  023%=      5-min Rain = 0
KPD3 202157Z 13011KT 37/13 A297 RMK A01 T03670129  RH  024%=      5-min Rain = 0
KPD3 202158Z 13011KT 37/14 A297 RMK A01 T03660136  RH  025%=      5-min Rain = 0
KPD3 202159Z 12010KT 36/14 A297 RMK A01 T03640141  RH  026%=      5-min Rain = 0
KPD3 202200Z 11009KT 36/14 A297 RMK A01 T03630141  RH  027%=      5-min Rain = 0
KPD3 202201Z 11011KT 36/14 A297 RMK A01 T03630136  RH  026%=      5-min Rain = 0
KPD3 202202Z 11012KT 36/13 A297 RMK A01 T03640127  RH  024%=      5-min Rain = 0
KPD3 202203Z 13011KT 36/12 A297 RMK A01 T03640123  RH  023%=      5-min Rain = 0
KPD3 202204Z 12009KT 37/12 A297 RMK A01 T03650119  RH  023%=      5-min Rain = 0
KPD3 202205Z 13009KT 37/12 A297 RMK A01 T03670123  RH  023%=      5-min Rain = 0
KPD3 202206Z 12009KT 37/14 A297 RMK A01 T03700135  RH  025%=      5-min Rain = 0
KPD3 202207Z 11009KT 37/13 A297 RMK A01 T03730127  RH  023%=      5-min Rain = 0
KPD3 202208Z 11008KT 37/14 A297 RMK A01 T03740137  RH  024%=      5-min Rain = 0
KPD3 202209Z 11007KT 38/15 A297 RMK A01 T03760153  RH  027%=      5-min Rain = 0
KPD3 202210Z 11007KT 38/16 A297 RMK A01 T03790155  RH  027%=      5-min Rain = 0
KPD3 202211Z 11008KT 38/16 A297 RMK A01 T03800155  RH  026%=      5-min Rain = 0
KPD3 202212Z 11008KT 38/14 A2969 RMK A01 T03820141  RH  024%=      5-min Rain = 0
KPD3 202213Z 10009KT 38/15 A2969 RMK A01 T03830147  RH  025%=      5-min Rain = 0
KPD3 202214Z 09009KT 38/13 A2969 RMK A01 T03840125  RH  021%=      5-min Rain = 0
KPD3 202215Z 10009KT 38/13 A2969 RMK A01 T03840132  RH  022%=      5-min Rain = 0
KPD3 202216Z 12012KT 39/12 A2969 RMK A01 T03850122  RH  021%=      5-min Rain = 0
KPD3 202217Z 13011KT 39/12 A2969 RMK A01 T03880121  RH  020%=      5-min Rain = 0
KPD3 202218Z 12010KT 39/13 A2969 RMK A01 T03900129  RH  021%=      5-min Rain = 0
KPD3 202219Z 14007KT 39/13 A2969 RMK A01 T03910134  RH  022%=      5-min Rain = 0
KPD3 202220Z 20009KT 39/13 A2969 RMK A01 T03910128  RH  021%=      5-min Rain = 0
KPD3 202221Z 19013KT 39/10 A2969 RMK A01 T03930098  RH  017%=      5-min Rain = 0
KPD3 202222Z 19016KT 40/08 A2969 RMK A01 T03950080  RH  015%=      5-min Rain = 0
KPD3 202223Z 20015KT 40/07 A2969 RMK A01 T03970072  RH  014%=      5-min Rain = 0
KPD3 202224Z 20013KT 40/08 A2969 RMK A01 T03970079  RH  015%=      5-min Rain = 0
KPD3 202225Z 19012KT 40/07 A2969 RMK A01 T03970072  RH  014%=      5-min Rain = 0
KPD3 202226Z 21013KT 40/07 A2969 RMK A01 T03960067  RH  014%=      5-min Rain = 0
KPD3 202227Z 21013KT 39/07 A2969 RMK A01 T03930066  RH  014%=      5-min Rain = 0
KPD3 202228Z 21011KT 39/06 A2969 RMK A01 T03880062  RH  014%=      5-min Rain = 0
KPD3 202229Z 21012KT 38/06 A2969 RMK A01 T03820059  RH  014%=      5-min Rain = 0
KPD3 202230Z 21011KT 38/06 A2969 RMK A01 T03790055  RH  014%=      5-min Rain = 0
KPD3 202231Z 20010KT 38/06 A2969 RMK A01 T03780059  RH  014%=      5-min Rain = 0
KPD3 202232Z 21010KT 38/06 A2969 RMK A01 T03770058  RH  014%=      5-min Rain = 0
KPD3 202233Z 20008KT 38/06 A2969 RMK A01 T03750061  RH  015%=      5-min Rain = 0
KPD3 202234Z 21007KT 37/07 A2969 RMK A01 T03730070  RH  016%=      5-min Rain = 0
KPD3 202235Z 20007KT 37/07 A2969 RMK A01 T03710074  RH  016%=      5-min Rain = 0
KPD3 202236Z 20006KT 37/08 A2969 RMK A01 T03680082  RH  018%=      5-min Rain = 0
KPD3 202237Z 21006KT 37/09 A2969 RMK A01 T03660087  RH  018%=      5-min Rain = 0
KPD3 202238Z 22006KT 36/09 A2969 RMK A01 T03640090  RH  019%=      5-min Rain = 0
KPD3 202239Z 22007KT 36/09 A2969 RMK A01 T03620090  RH  019%=      5-min Rain = 0
KPD3 202240Z 21007KT 36/08 A2969 RMK A01 T03640083  RH  018%=      5-min Rain = 0
KPD3 202241Z 22006KT 37/09 A2969 RMK A01 T03700089  RH  018%=      5-min Rain = 0
KPD3 202242Z 21005KT 38/10 A2969 RMK A01 T03770097  RH  019%=      5-min Rain = 0
KPD3 202243Z 21004KT 38/10 A2969 RMK A01 T03830098  RH  018%=      5-min Rain = 0
KPD3 202244Z 21004KT 39/10 A2969 RMK A01 T03880096  RH  017%=      5-min Rain = 0
KPD3 202245Z 21004KT 39/09 A2969 RMK A01 T03910089  RH  016%=      5-min Rain = 0
KPD3 202246Z 21003KT 39/10 A2969 RMK A01 T03930101  RH  017%=      5-min Rain = 0
KPD3 202247Z 20003KT 40/09 A2969 RMK A01 T03950092  RH  016%=      5-min Rain = 0
KPD3 202248Z 20003KT 40/09 A2969 RMK A01 T03960094  RH  016%=      5-min Rain = 0
KPD3 202249Z 21005KT 40/09 A2969 RMK A01 T03970093  RH  016%=      5-min Rain = 0
KPD3 202250Z 20006KT 40/09 A2969 RMK A01 T03950091  RH  016%=      5-min Rain = 0
KPD3 202251Z 19009KT 39/07 A2969 RMK A01 T03910066  RH  014%=      5-min Rain = 0
KPD3 202252Z 18008KT 39/07 A2969 RMK A01 T03870069  RH  014%=      5-min Rain = 0
KPD3 202253Z 20008KT 39/07 A2969 RMK A01 T03860070  RH  015%=      5-min Rain = 0
KPD3 202254Z 23009KT 39/09 A2969 RMK A01 T03880086  RH  016%=      5-min Rain = 0
KPD3 202255Z 25009KT 39/08 A2969 RMK A01 T03900080  RH  015%=      5-min Rain = 0
KPD3 202256Z 22008KT 39/07 A2969 RMK A01 T03920070  RH  014%=      5-min Rain = 0
KPD3 202257Z 24007KT 39/08 A2969 RMK A01 T03930075  RH  015%=      5-min Rain = 0
KPD3 202258Z 23007KT 39/07 A2969 RMK A01 T03940068  RH  014%=      5-min Rain = 0
KPD3 202259Z 22006KT 39/08 A2968 RMK A01 T03940079  RH  015%=      5-min Rain = 0
KPD3 202300Z 22007KT 40/08 A2968 RMK A01 T03950076  RH  015%=      5-min Rain = 0
KPD3 202301Z 21006KT 40/07 A2968 RMK A01 T03960067  RH  014%=      5-min Rain = 0
KPD3 202302Z 20008KT 40/08 A2968 RMK A01 T03960079  RH  015%=      5-min Rain = 0
KPD3 202303Z 21010KT 40/07 A2968 RMK A01 T03960071  RH  014%=      5-min Rain = 0
KPD3 202304Z 21011KT 39/07 A2968 RMK A01 T03930065  RH  014%=      5-min Rain = 0
KPD3 202305Z 20010G15KT 39/06 A2968 RMK A01 T03880061  RH  014%=      5-min Rain = 0
KPD3 202306Z 20011KT 38/06 A2968 RMK A01 T03840062  RH  014%=      5-min Rain = 0
KPD3 202307Z 20011KT 38/07 A2968 RMK A01 T03810066  RH  015%=      5-min Rain = 0
KPD3 202308Z 19010KT 38/07 A2968 RMK A01 T03820067  RH  015%=      5-min Rain = 0
KPD3 202309Z 20012KT 39/07 A2968 RMK A01 T03860068  RH  014%=      5-min Rain = 0
KPD3 202310Z 21012G17KT 39/07 A2968 RMK A01 T03900071  RH  014%=      5-min Rain = 0
KPD3 202311Z 20011KT 39/07 A2968 RMK A01 T03920067  RH  014%=      5-min Rain = 0
KPD3 202312Z 20014KT 39/07 A2968 RMK A01 T03930072  RH  014%=      5-min Rain = 0
KPD3 202313Z 21015KT 39/07 A2968 RMK A01 T03930066  RH  014%=      5-min Rain = 0
KPD3 202314Z 20012KT 39/07 A2968 RMK A01 T03930066  RH  014%=      5-min Rain = 0
KPD3 202315Z 20013KT 39/06 A2968 RMK A01 T03910063  RH  014%=      5-min Rain = 0
KPD3 202316Z 19014KT 39/06 A2968 RMK A01 T03900059  RH  013%=      5-min Rain = 0
KPD3 202317Z 20014KT 39/06 A2968 RMK A01 T03900061  RH  013%=      5-min Rain = 0
KPD3 202318Z 19012KT 39/07 A2968 RMK A01 T03910065  RH  014%=      5-min Rain = 0
KPD3 202319Z 21011KT 39/06 A2968 RMK A01 T03900064  RH  014%=      5-min Rain = 0
KPD3 202320Z 21008KT 39/07 A2968 RMK A01 T03870073  RH  015%=      5-min Rain = 0
KPD3 202321Z 21009KT 38/08 A2968 RMK A01 T03810077  RH  016%=      5-min Rain = 0
KPD3 202322Z 21011KT 38/06 A2968 RMK A01 T03770063  RH  015%=      5-min Rain = 0
KPD3 202323Z 20011KT 38/06 A2968 RMK A01 T03770060  RH  014%=      5-min Rain = 0
KPD3 202324Z 20010KT 38/06 A2967 RMK A01 T03780057  RH  014%=      5-min Rain = 0
KPD3 202325Z 19010KT 38/06 A2967 RMK A01 T03790064  RH  015%=      5-min Rain = 0
KPD3 202326Z 19009KT 38/06 A2967 RMK A01 T03780064  RH  015%=      5-min Rain = 0
KPD3 202327Z 20009KT 38/07 A2967 RMK A01 T03750069  RH  015%=      5-min Rain = 0
KPD3 202328Z 20006KT 37/07 A2967 RMK A01 T03730069  RH  016%=      5-min Rain = 0
KPD3 202329Z 21007KT 37/09 A2967 RMK A01 T03710086  RH  018%=      5-min Rain = 0
KPD3 202330Z 20008KT 37/09 A2967 RMK A01 T03690086  RH  018%=      5-min Rain = 0
KPD3 202331Z 20014KT 37/06 A2967 RMK A01 T03690063  RH  015%=      5-min Rain = 0
KPD3 202332Z 22013KT 37/06 A2967 RMK A01 T03730059  RH  015%=      5-min Rain = 0
KPD3 202333Z 21013KT 38/06 A2967 RMK A01 T03780063  RH  015%=      5-min Rain = 0
KPD3 202334Z 20012KT 38/06 A2967 RMK A01 T03820063  RH  014%=      5-min Rain = 0
KPD3 202335Z 21012KT 38/07 A2967 RMK A01 T03840071  RH  015%=      5-min Rain = 0
KPD3 202336Z 21012KT 39/07 A2967 RMK A01 T03850067  RH  014%=      5-min Rain = 0
KPD3 202337Z 20011KT 39/07 A2967 RMK A01 T03860072  RH  015%=      5-min Rain = 0
KPD3 202338Z 20013KT 39/07 A2967 RMK A01 T03860067  RH  014%=      5-min Rain = 0
KPD3 202339Z 20016G22KT 39/06 A2967 RMK A01 T03860062  RH  014%=      5-min Rain = 0
KPD3 202340Z 20016G21KT 39/06 A2967 RMK A01 T03850058  RH  014%=      5-min Rain = 0
KPD3 202341Z 20015KT 38/07 A2967 RMK A01 T03840066  RH  014%=      5-min Rain = 0
KPD3 202342Z 22015KT 38/07 A2967 RMK A01 T03840065  RH  014%=      5-min Rain = 0
KPD3 202343Z 22014KT 39/07 A2967 RMK A01 T03850069  RH  015%=      5-min Rain = 0
KPD3 202344Z 22014KT 39/06 A2967 RMK A01 T03850060  RH  014%=      5-min Rain = 0
KPD3 202345Z 22011KT 39/07 A2967 RMK A01 T03850065  RH  014%=      5-min Rain = 0
KPD3 202346Z 22011KT 39/07 A2967 RMK A01 T03850073  RH  015%=      5-min Rain = 0
KPD3 202347Z 22011KT 39/08 A2967 RMK A01 T03850075  RH  015%=      5-min Rain = 0
KPD3 202348Z 22010KT 39/08 A2967 RMK A01 T03850082  RH  016%=      5-min Rain = 0
KPD3 202349Z 22011KT 39/08 A2967 RMK A01 T03850081  RH  016%=      5-min Rain = 0
KPD3 202350Z 22012KT 38/07 A2967 RMK A01 T03840073  RH  015%=      5-min Rain = 0
KPD3 202351Z 22013KT 38/07 A2967 RMK A01 T03840069  RH  015%=      5-min Rain = 0
KPD3 202352Z 22014KT 38/07 A2967 RMK A01 T03840069  RH  015%=      5-min Rain = 0
KPD3 202353Z 22014KT 38/06 A2967 RMK A01 T03840063  RH  014%=      5-min Rain = 0
KPD3 202354Z 23011KT 38/07 A2967 RMK A01 T03840068  RH  015%=      5-min Rain = 0
KPD3 202355Z 22012KT 38/07 A2967 RMK A01 T03820068  RH  015%=      5-min Rain = 0
KPD3 202356Z 22012KT 38/07 A2967 RMK A01 T03810067  RH  015%=      5-min Rain = 0
KPD3 202357Z 22010KT 38/07 A2967 RMK A01 T03810065  RH  015%=      5-min Rain = 0
KPD3 202358Z 21012KT 38/07 A2967 RMK A01 T03810065  RH  015%=      5-min Rain = 0
KPD3 202359Z 22010KT 38/06 A2967 RMK A01 T03810063  RH  014%=      5-min Rain = 0
KPD3 210000Z 21012KT 38/07 A2967 RMK A01 T03820066  RH  015%=      5-min Rain = 0
KPD3 210001Z 21009KT 38/07 A2967 RMK A01 T03820065  RH  014%=      5-min Rain = 0
KPD3 210002Z 20010KT 38/08 A2967 RMK A01 T03820078  RH  016%=      5-min Rain = 0
KPD3 210003Z 21010KT 38/06 A2967 RMK A01 T03810064  RH  014%=      5-min Rain = 0
KPD3 210004Z 21010KT 38/07 A2967 RMK A01 T03820068  RH  015%=      5-min Rain = 0
KPD3 210005Z 21010KT 38/07 A2967 RMK A01 T03810071  RH  015%=      5-min Rain = 0
KPD3 210006Z 21010KT 38/07 A2967 RMK A01 T03780067  RH  015%=      5-min Rain = 0
KPD3 210007Z 20009KT 38/08 A2967 RMK A01 T03750077  RH  016%=      5-min Rain = 0
KPD3 210008Z 20013KT 37/07 A2967 RMK A01 T03720067  RH  015%=      5-min Rain = 0
KPD3 210009Z 20012KT 37/06 A2967 RMK A01 T03720062  RH  015%=      5-min Rain = 0
KPD3 210010Z 21011KT 37/07 A2967 RMK A01 T03730068  RH  015%=      5-min Rain = 0
KPD3 210011Z 20008KT 37/07 A2967 RMK A01 T03730073  RH  016%=      5-min Rain = 0
KPD3 210012Z 21009KT 37/08 A2967 RMK A01 T03710079  RH  017%=      5-min Rain = 0
KPD3 210013Z 21008KT 37/08 A2967 RMK A01 T03690079  RH  017%=      5-min Rain = 0
KPD3 210014Z 21008KT 37/08 A2967 RMK A01 T03680083  RH  018%=      5-min Rain = 0
KPD3 210015Z 20008KT 37/08 A2967 RMK A01 T03680075  RH  017%=      5-min Rain = 0
KPD3 210016Z 21011KT 37/08 A2967 RMK A01 T03690078  RH  017%=      5-min Rain = 0
KPD3 210017Z 21011KT 37/08 A2967 RMK A01 T03710077  RH  017%=      5-min Rain = 0
KPD3 210018Z 22013KT 37/07 A2967 RMK A01 T03720073  RH  016%=      5-min Rain = 0
KPD3 210019Z 21014KT 37/06 A2967 RMK A01 T03740064  RH  015%=      5-min Rain = 0
KPD3 210020Z 21012KT 38/07 A2967 RMK A01 T03760066  RH  015%=      5-min Rain = 0
KPD3 210021Z 21011KT 38/07 A2967 RMK A01 T03760070  RH  015%=      5-min Rain = 0
KPD3 210022Z 21011KT 38/07 A2967 RMK A01 T03750074  RH  016%=      5-min Rain = 0
KPD3 210023Z 20011KT 38/07 A2967 RMK A01 T03750074  RH  016%=      5-min Rain = 0
KPD3 210024Z 21010KT 37/07 A2967 RMK A01 T03740074  RH  016%=      5-min Rain = 0
KPD3 210025Z 21009KT 37/08 A2967 RMK A01 T03740075  RH  016%=      5-min Rain = 0
KPD3 210026Z 20010KT 37/08 A2967 RMK A01 T03730078  RH  017%=      5-min Rain = 0
KPD3 210027Z 21010KT 37/08 A2967 RMK A01 T03720080  RH  017%=      5-min Rain = 0
KPD3 210028Z 21010KT 37/08 A2967 RMK A01 T03710080  RH  017%=      5-min Rain = 0
KPD3 210029Z 21011KT 37/07 A2967 RMK A01 T03700074  RH  016%=      5-min Rain = 0
KPD3 210030Z 20010KT 37/07 A2967 RMK A01 T03710072  RH  016%=      5-min Rain = 0
KPD3 210031Z 20010KT 37/08 A2967 RMK A01 T03710079  RH  017%=      5-min Rain = 0
KPD3 210032Z 21009KT 37/08 A2967 RMK A01 T03700080  RH  017%=      5-min Rain = 0
KPD3 210033Z 20009KT 37/08 A2967 RMK A01 T03690084  RH  018%=      5-min Rain = 0
KPD3 210034Z 20009KT 37/08 A2967 RMK A01 T03680081  RH  017%=      5-min Rain = 0
KPD3 210035Z 20008KT 37/09 A2967 RMK A01 T03670086  RH  018%=      5-min Rain = 0
KPD3 210036Z 20009KT 37/09 A2967 RMK A01 T03670086  RH  018%=      5-min Rain = 0
KPD3 210037Z 20009KT 37/09 A2967 RMK A01 T03660086  RH  018%=      5-min Rain = 0
KPD3 210038Z 20008KT 37/09 A2967 RMK A01 T03660085  RH  018%=      5-min Rain = 0
KPD3 210039Z 20010KT 37/09 A2967 RMK A01 T03650086  RH  018%=      5-min Rain = 0
KPD3 210040Z 20008KT 37/09 A2967 RMK A01 T03650087  RH  018%=      5-min Rain = 0
KPD3 210041Z 20008KT 36/09 A2967 RMK A01 T03640090  RH  019%=      5-min Rain = 0
KPD3 210042Z 20008KT 36/09 A2967 RMK A01 T03630092  RH  019%=      5-min Rain = 0
KPD3 210043Z 20008KT 36/09 A2967 RMK A01 T03620094  RH  020%=      5-min Rain = 0
KPD3 210044Z 20008KT 36/10 A2967 RMK A01 T03610098  RH  020%=      5-min Rain = 0
KPD3 210045Z 20008KT 36/10 A2967 RMK A01 T03600096  RH  020%=      5-min Rain = 0
KPD3 210046Z 20008KT 36/10 A2967 RMK A01 T03590097  RH  020%=      5-min Rain = 0
KPD3 210047Z 19007KT 36/10 A2967 RMK A01 T03590101  RH  021%=      5-min Rain = 0
KPD3 210048Z 19007KT 36/11 A2967 RMK A01 T03570105  RH  022%=      5-min Rain = 0
KPD3 210049Z 19007KT 36/11 A2967 RMK A01 T03550106  RH  022%=      5-min Rain = 0
KPD3 210050Z 19006KT 35/11 A2967 RMK A01 T03530110  RH  023%=      5-min Rain = 0
KPD3 210051Z 19007KT 35/11 A2967 RMK A01 T03500112  RH  024%=      5-min Rain = 0
KPD3 210052Z 19006KT 35/11 A2967 RMK A01 T03470111  RH  024%=      5-min Rain = 0
KPD3 210053Z 19007KT 34/11 A2967 RMK A01 T03440113  RH  025%=      5-min Rain = 0
KPD3 210054Z 19007KT 34/11 A2967 RMK A01 T03410111  RH  025%=      5-min Rain = 0
KPD3 210055Z 19007KT 34/11 A2967 RMK A01 T03390112  RH  025%=      5-min Rain = 0
KPD3 210056Z 19007KT 34/11 A2967 RMK A01 T03360114  RH  026%=      5-min Rain = 0
KPD3 210057Z 20007KT 34/12 A2967 RMK A01 T03350115  RH  026%=      5-min Rain = 0
KPD3 210058Z 19007KT 33/12 A2967 RMK A01 T03340115  RH  026%=      5-min Rain = 0
KPD3 210059Z 19006KT 33/12 A2967 RMK A01 T03340118  RH  027%=      5-min Rain = 0
KPD3 210100Z 19006KT 33/12 A2967 RMK A01 T03340122  RH  028%=      5-min Rain = 0
KPD3 210101Z 19007KT 33/12 A2967 RMK A01 T03330123  RH  028%=      5-min Rain = 0
KPD3 210102Z 19006KT 33/12 A2967 RMK A01 T03330122  RH  028%=      5-min Rain = 0
KPD3 210103Z 19006KT 33/12 A2967 RMK A01 T03330122  RH  028%=      5-min Rain = 0
KPD3 210104Z 18006KT 33/12 A2967 RMK A01 T03320122  RH  028%=      5-min Rain = 0
KPD3 210105Z 19006KT 33/12 A2967 RMK A01 T03310123  RH  028%=      5-min Rain = 0
KPD3 210106Z 19006KT 33/13 A2967 RMK A01 T03290126  RH  029%=      5-min Rain = 0
KPD3 210107Z 18006KT 33/13 A2967 RMK A01 T03280127  RH  030%=      5-min Rain = 0
KPD3 210108Z 19007KT 33/13 A2967 RMK A01 T03260129  RH  030%=      5-min Rain = 0
KPD3 210109Z 18007KT 32/13 A2967 RMK A01 T03240129  RH  031%=      5-min Rain = 0
KPD3 210110Z 18007KT 32/13 A2967 RMK A01 T03230130  RH  031%=      5-min Rain = 0
KPD3 210111Z 18007KT 32/13 A2967 RMK A01 T03210131  RH  031%=      5-min Rain = 0
KPD3 210112Z 18007KT 32/13 A2967 RMK A01 T03200133  RH  032%=      5-min Rain = 0
KPD3 210113Z 18007KT 32/13 A2967 RMK A01 T03180131  RH  032%=      5-min Rain = 0
KPD3 210114Z 19007KT 32/13 A2967 RMK A01 T03170131  RH  032%=      5-min Rain = 0
KPD3 210115Z 18007KT 32/13 A2967 RMK A01 T03160130  RH  032%=      5-min Rain = 0
KPD3 210116Z 18007KT 32/13 A2967 RMK A01 T03150133  RH  033%=      5-min Rain = 0
KPD3 210117Z 18007KT 31/13 A2967 RMK A01 T03140134  RH  033%=      5-min Rain = 0
KPD3 210118Z 19007KT 31/14 A2967 RMK A01 T03130135  RH  034%=      5-min Rain = 0
KPD3 210119Z 19007KT 31/13 A2967 RMK A01 T03120132  RH  033%=      5-min Rain = 0
KPD3 210120Z 18007KT 31/14 A2967 RMK A01 T03110135  RH  034%=      5-min Rain = 0
KPD3 210121Z 18007KT 31/14 A2967 RMK A01 T03100136  RH  034%=      5-min Rain = 0
KPD3 210122Z 18007KT 31/14 A2967 RMK A01 T03090137  RH  035%=      5-min Rain = 0
KPD3 210123Z 18007KT 31/14 A2967 RMK A01 T03080138  RH  035%=      5-min Rain = 0
KPD3 210124Z 18007KT 31/14 A2967 RMK A01 T03070138  RH  036%=      5-min Rain = 0
KPD3 210125Z 18007KT 31/14 A2967 RMK A01 T03060140  RH  036%=      5-min Rain = 0
KPD3 210126Z 18007KT 30/14 A2967 RMK A01 T03040142  RH  037%=      5-min Rain = 0
KPD3 210127Z 18007KT 30/14 A2967 RMK A01 T03030143  RH  038%=      5-min Rain = 0
KPD3 210128Z 17007KT 30/14 A2967 RMK A01 T03010143  RH  038%=      5-min Rain = 0
KPD3 210129Z 17007KT 30/15 A2968 RMK A01 T03010147  RH  039%=      5-min Rain = 0
KPD3 210130Z 16007KT 30/15 A2968 RMK A01 T02990151  RH  041%=      5-min Rain = 0
KPD3 210131Z 14008KT 30/15 A2968 RMK A01 T02960154  RH  042%=      5-min Rain = 0
KPD3 210132Z 15007KT 29/14 A2968 RMK A01 T02930144  RH  040%=      5-min Rain = 0
KPD3 210133Z 15007KT 29/14 A2968 RMK A01 T02930143  RH  040%=      5-min Rain = 0
KPD3 210134Z 15007KT 29/14 A2968 RMK A01 T02930142  RH  040%=      5-min Rain = 0
KPD3 210135Z 16007KT 29/14 A2968 RMK A01 T02920142  RH  040%=      5-min Rain = 0
KPD3 210136Z 16007KT 29/14 A2968 RMK A01 T02920140  RH  039%=      5-min Rain = 0
KPD3 210137Z 17006KT 29/14 A2968 RMK A01 T02920139  RH  039%=      5-min Rain = 0
KPD3 210138Z 17006KT 29/14 A2968 RMK A01 T02920140  RH  039%=      5-min Rain = 0
KPD3 210139Z 17006KT 29/14 A2968 RMK A01 T02920140  RH  039%=      5-min Rain = 0
KPD3 210140Z 17006KT 29/14 A2968 RMK A01 T02910138  RH  039%=      5-min Rain = 0
KPD3 210141Z 17006KT 29/14 A2968 RMK A01 T02910136  RH  039%=      5-min Rain = 0
KPD3 210142Z 17007KT 29/14 A2968 RMK A01 T02910135  RH  038%=      5-min Rain = 0
KPD3 210143Z 17006KT 29/13 A2968 RMK A01 T02910134  RH  038%=      5-min Rain = 0
KPD3 210144Z 17007KT 29/13 A2968 RMK A01 T02910133  RH  038%=      5-min Rain = 0
KPD3 210145Z 17007KT 29/13 A2968 RMK A01 T02900131  RH  038%=      5-min Rain = 0
KPD3 210146Z 18007KT 29/13 A2968 RMK A01 T02890130  RH  037%=      5-min Rain = 0
KPD3 210147Z 18006KT 29/13 A2968 RMK A01 T02880131  RH  038%=      5-min Rain = 0
KPD3 210148Z 19006KT 29/13 A2968 RMK A01 T02850131  RH  038%=      5-min Rain = 0
KPD3 210149Z 18006KT 28/13 A2968 RMK A01 T02840129  RH  038%=      5-min Rain = 0
KPD3 210150Z 18006KT 28/13 A2968 RMK A01 T02830128  RH  038%=      5-min Rain = 0
KPD3 210151Z 18006KT 28/13 A2968 RMK A01 T02830128  RH  038%=      5-min Rain = 0
KPD3 210152Z 18006KT 28/13 A2968 RMK A01 T02820128  RH  039%=      5-min Rain = 0
KPD3 210153Z 17006KT 28/13 A2968 RMK A01 T02810128  RH  039%=      5-min Rain = 0
KPD3 210154Z 17006KT 28/13 A2968 RMK A01 T02800129  RH  039%=      5-min Rain = 0
KPD3 210155Z 17006KT 28/13 A2968 RMK A01 T02790129  RH  040%=      5-min Rain = 0
KPD3 210156Z 17007KT 28/13 A2968 RMK A01 T02780130  RH  040%=      5-min Rain = 0
KPD3 210157Z 17007KT 28/13 A2968 RMK A01 T02760129  RH  040%=      5-min Rain = 0
KPD3 210158Z 17007KT 28/13 A2968 RMK A01 T02750127  RH  040%=      5-min Rain = 0
KPD3 210159Z 17008KT 27/13 A2968 RMK A01 T02740127  RH  040%=      5-min Rain = 0
KPD3 210200Z 17008KT 27/13 A2968 RMK A01 T02740127  RH  040%=      5-min Rain = 0
KPD3 210201Z 17008KT 27/13 A2968 RMK A01 T02730127  RH  040%=      5-min Rain = 0
KPD3 210202Z 17009KT 27/13 A2968 RMK A01 T02730127  RH  040%=      5-min Rain = 0
KPD3 210203Z 18009KT 27/13 A2968 RMK A01 T02720126  RH  040%=      5-min Rain = 0
KPD3 210204Z 18010KT 27/13 A2968 RMK A01 T02720126  RH  040%=      5-min Rain = 0
KPD3 210205Z 17011KT 27/13 A2968 RMK A01 T02730125  RH  040%=      5-min Rain = 0
KPD3 210206Z 17010KT 28/13 A2968 RMK A01 T02750125  RH  040%=      5-min Rain = 0
KPD3 210207Z 17010KT 28/13 A2968 RMK A01 T02770126  RH  039%=      5-min Rain = 0
KPD3 210208Z 16009KT 28/13 A2968 RMK A01 T02790126  RH  039%=      5-min Rain = 0
KPD3 210209Z 16009KT 28/13 A2968 RMK A01 T02800128  RH  039%=      5-min Rain = 0
KPD3 210210Z 16009KT 28/13 A2968 RMK A01 T02790129  RH  040%=      5-min Rain = 0
KPD3 210211Z 16010KT 28/13 A2968 RMK A01 T02770129  RH  040%=      5-min Rain = 0
KPD3 210212Z 16009KT 28/13 A2968 RMK A01 T02770128  RH  040%=      5-min Rain = 0
KPD3 210213Z 16009KT 28/13 A2968 RMK A01 T02770129  RH  040%=      5-min Rain = 0
KPD3 210214Z 16008KT 28/13 A2968 RMK A01 T02770129  RH  040%=      5-min Rain = 0
KPD3 210215Z 16008KT 28/13 A2968 RMK A01 T02770130  RH  040%=      5-min Rain = 0
KPD3 210216Z 16008KT 28/13 A2968 RMK A01 T02770130  RH  040%=      5-min Rain = 0
KPD3 210217Z 17007KT 28/13 A2968 RMK A01 T02760130  RH  040%=      5-min Rain = 0
KPD3 210218Z 17007KT 28/13 A2968 RMK A01 T02760130  RH  040%=      5-min Rain = 0
KPD3 210219Z 18006KT 28/13 A2968 RMK A01 T02760131  RH  041%=      5-min Rain = 0
KPD3 210220Z 18006KT 28/13 A2968 RMK A01 T02750131  RH  041%=      5-min Rain = 0
KPD3 210221Z 18007KT 27/13 A2968 RMK A01 T02740131  RH  041%=      5-min Rain = 0
KPD3 210222Z 18007KT 27/13 A2968 RMK A01 T02730131  RH  041%=      5-min Rain = 0
KPD3 210223Z 17007KT 27/13 A2968 RMK A01 T02730131  RH  041%=      5-min Rain = 0
KPD3 210224Z 17007KT 27/13 A2968 RMK A01 T02730130  RH  041%=      5-min Rain = 0
KPD3 210225Z 16008KT 27/13 A2968 RMK A01 T02730131  RH  042%=      5-min Rain = 0
KPD3 210226Z 16008KT 27/13 A2968 RMK A01 T02720131  RH  042%=      5-min Rain = 0
KPD3 210227Z 16008KT 27/13 A2968 RMK A01 T02720131  RH  042%=      5-min Rain = 0
KPD3 210228Z 16008KT 27/13 A2968 RMK A01 T02720131  RH  042%=      5-min Rain = 0
KPD3 210229Z 16008KT 27/13 A2968 RMK A01 T02720132  RH  042%=      5-min Rain = 0
KPD3 210230Z 16008KT 27/13 A2968 RMK A01 T02720132  RH  042%=      5-min Rain = 0
KPD3 210231Z 16008KT 27/13 A2968 RMK A01 T02720132  RH  042%=      5-min Rain = 0
KPD3 210232Z 17007KT 27/13 A2968 RMK A01 T02720132  RH  042%=      5-min Rain = 0
KPD3 210233Z 17007KT 27/13 A2968 RMK A01 T02720133  RH  042%=      5-min Rain = 0
KPD3 210234Z 17007KT 27/13 A2968 RMK A01 T02700133  RH  043%=      5-min Rain = 0
KPD3 210235Z 17007KT 27/13 A2968 RMK A01 T02690133  RH  043%=      5-min Rain = 0
KPD3 210236Z 17007KT 27/13 A2968 RMK A01 T02670134  RH  044%=      5-min Rain = 0
KPD3 210237Z 17007KT 27/13 A2968 RMK A01 T02660134  RH  044%=      5-min Rain = 0
KPD3 210238Z 17007KT 26/13 A2968 RMK A01 T02640133  RH  045%=      5-min Rain = 0
KPD3 210239Z 17007KT 26/13 A2968 RMK A01 T02620134  RH  045%=      5-min Rain = 0
KPD3 210240Z 17007KT 26/13 A2968 RMK A01 T02600134  RH  046%=      5-min Rain = 0
KPD3 210241Z 17007KT 26/13 A2968 RMK A01 T02590134  RH  046%=      5-min Rain = 0
KPD3 210242Z 17007KT 26/13 A2968 RMK A01 T02580134  RH  046%=      5-min Rain = 0
KPD3 210243Z 16008KT 26/14 A2968 RMK A01 T02570135  RH  047%=      5-min Rain = 0
KPD3 210244Z 17007KT 26/14 A2968 RMK A01 T02560135  RH  047%=      5-min Rain = 0
KPD3 210245Z 17007KT 26/14 A2968 RMK A01 T02550135  RH  047%=      5-min Rain = 0
KPD3 210246Z 17008KT 26/14 A2968 RMK A01 T02550135  RH  047%=      5-min Rain = 0
KPD3 210247Z 17007KT 25/14 A2968 RMK A01 T02540135  RH  048%=      5-min Rain = 0
KPD3 210248Z 16008KT 25/14 A2968 RMK A01 T02540135  RH  048%=      5-min Rain = 0
KPD3 210249Z 16007KT 25/14 A2968 RMK A01 T02530135  RH  048%=      5-min Rain = 0
KPD3 210250Z 16007KT 25/14 A2968 RMK A01 T02530135  RH  048%=      5-min Rain = 0
KPD3 210251Z 16007KT 25/14 A2968 RMK A01 T02520136  RH  048%=      5-min Rain = 0
KPD3 210252Z 16007KT 25/14 A2968 RMK A01 T02520136  RH  048%=      5-min Rain = 0
KPD3 210253Z 16007KT 25/14 A2968 RMK A01 T02520136  RH  049%=      5-min Rain = 0
KPD3 210254Z 16007KT 25/14 A2968 RMK A01 T02520136  RH  049%=      5-min Rain = 0
KPD3 210255Z 16007KT 25/14 A2968 RMK A01 T02510136  RH  049%=      5-min Rain = 0
KPD3 210256Z 16007KT 25/14 A2969 RMK A01 T02510137  RH  049%=      5-min Rain = 0
KPD3 210257Z 16007KT 25/14 A2969 RMK A01 T02490137  RH  050%=      5-min Rain = 0
KPD3 210258Z 16007KT 25/14 A2969 RMK A01 T02480137  RH  050%=      5-min Rain = 0
KPD3 210259Z 16007KT 25/14 A2969 RMK A01 T02470137  RH  050%=      5-min Rain = 0
KPD3 210300Z 16006KT 25/14 A2969 RMK A01 T02460137  RH  051%=      5-min Rain = 0
KPD3 210301Z 16006KT 25/14 A2969 RMK A01 T02450138  RH  051%=      5-min Rain = 0
KPD3 210302Z 16006KT 24/14 A2969 RMK A01 T02440138  RH  052%=      5-min Rain = 0
KPD3 210303Z 16006KT 24/14 A2969 RMK A01 T02430138  RH  052%=      5-min Rain = 0
KPD3 210304Z 16005KT 24/14 A2969 RMK A01 T02420138  RH  052%=      5-min Rain = 0
KPD3 210305Z 16005KT 24/14 A2969 RMK A01 T02410138  RH  052%=      5-min Rain = 0
KPD3 210306Z 16005KT 24/14 A2969 RMK A01 T02400137  RH  053%=      5-min Rain = 0
KPD3 210307Z 16004KT 24/14 A2969 RMK A01 T02390138  RH  053%=      5-min Rain = 0
KPD3 210308Z 16004KT 24/14 A2969 RMK A01 T02380138  RH  053%=      5-min Rain = 0
KPD3 210309Z 16003KT 24/14 A2969 RMK A01 T02380138  RH  053%=      5-min Rain = 0
KPD3 210310Z 16003KT 24/14 A2969 RMK A01 T02370137  RH  053%=      5-min Rain = 0
KPD3 210311Z 16002KT 24/14 A2969 RMK A01 T02360137  RH  054%=      5-min Rain = 0
KPD3 210312Z 16002KT 24/14 A2969 RMK A01 T02360137  RH  054%=      5-min Rain = 0
KPD3 210313Z 16002KT 24/14 A2969 RMK A01 T02350137  RH  054%=      5-min Rain = 0
KPD3 210314Z 15002KT 23/14 A2969 RMK A01 T02340137  RH  054%=      5-min Rain = 0
KPD3 210315Z 16002KT 23/14 A2969 RMK A01 T02340137  RH  054%=      5-min Rain = 0
KPD3 210316Z 16002KT 23/14 A2969 RMK A01 T02340137  RH  054%=      5-min Rain = 0
KPD3 210317Z 16002KT 23/14 A2969 RMK A01 T02340137  RH  054%=      5-min Rain = 0
KPD3 210318Z 17001KT 24/14 A2969 RMK A01 T02350137  RH  054%=      5-min Rain = 0
KPD3 210319Z 17001KT 24/14 A2969 RMK A01 T02350137  RH  054%=      5-min Rain = 0
KPD3 210320Z 18001KT 24/14 A2969 RMK A01 T02360137  RH  054%=      5-min Rain = 0
KPD3 210321Z 19001KT 24/14 A297 RMK A01 T02370138  RH  054%=      5-min Rain = 0
KPD3 210322Z 19001KT 24/15 A297 RMK A01 T02350148  RH  058%=      5-min Rain = 0
KPD3 210323Z 19002KT 23/15 A297 RMK A01 T02270149  RH  062%=      5-min Rain = 0
KPD3 210324Z 19002KT 22/15 A297 RMK A01 T02190147  RH  063%=      5-min Rain = 0
KPD3 210325Z 21000KT 21/15 A297 RMK A01 T02140146  RH  065%=      5-min Rain = 0
KPD3 210326Z 28001KT 21/15 A297 RMK A01 T02100145  RH  067%=      5-min Rain = 0
KPD3 210327Z 28001KT 21/14 A297 RMK A01 T02080144  RH  067%=      5-min Rain = 0
KPD3 210328Z 27001KT 21/14 A297 RMK A01 T02070143  RH  067%=      5-min Rain = 0
KPD3 210329Z 28001KT 21/14 A297 RMK A01 T02070143  RH  067%=      5-min Rain = 0
KPD3 210330Z 32000KT 21/14 A297 RMK A01 T02090140  RH  065%=      5-min Rain = 0
KPD3 210331Z 18000KT 21/14 A297 RMK A01 T02130143  RH  064%=      5-min Rain = 0
KPD3 210332Z 18000KT 22/14 A297 RMK A01 T02150142  RH  063%=      5-min Rain = 0
KPD3 210333Z 00000KT 22/14 A297 RMK A01 T02180142  RH  062%=      5-min Rain = 0
KPD3 210334Z 20000KT 22/14 A297 RMK A01 T02190144  RH  062%=      5-min Rain = 0
KPD3 210335Z 15001KT 22/14 A297 RMK A01 T02190143  RH  062%=      5-min Rain = 0
KPD3 210336Z 15000KT 22/14 A297 RMK A01 T02200144  RH  062%=      5-min Rain = 0
KPD3 210337Z 00000KT 22/15 A297 RMK A01 T02180146  RH  064%=      5-min Rain = 0
KPD3 210338Z 15001KT 22/14 A297 RMK A01 T02150144  RH  064%=      5-min Rain = 0
KPD3 210339Z 00000KT 22/15 A297 RMK A01 T02150146  RH  065%=      5-min Rain = 0
KPD3 210340Z 00000KT 21/14 A297 RMK A01 T02140143  RH  064%=      5-min Rain = 0
KPD3 210341Z 16000KT 22/14 A297 RMK A01 T02160143  RH  063%=      5-min Rain = 0
KPD3 210342Z 17000KT 22/14 A297 RMK A01 T02170143  RH  063%=      5-min Rain = 0
KPD3 210343Z 00000KT 22/15 A297 RMK A01 T02150146  RH  065%=      5-min Rain = 0
KPD3 210344Z 31000KT 21/14 A297 RMK A01 T02090144  RH  067%=      5-min Rain = 0
KPD3 210345Z 31001KT 21/14 A297 RMK A01 T02050143  RH  068%=      5-min Rain = 0
KPD3 210346Z 31001KT 20/14 A297 RMK A01 T02030142  RH  068%=      5-min Rain = 0
KPD3 210347Z 32001KT 20/14 A297 RMK A01 T02030141  RH  068%=      5-min Rain = 0
KPD3 210348Z 34001KT 20/14 A297 RMK A01 T02020142  RH  068%=      5-min Rain = 0
KPD3 210349Z 34001KT 20/14 A297 RMK A01 T02010142  RH  069%=      5-min Rain = 0
KPD3 210350Z 00001KT 20/14 A297 RMK A01 T02010143  RH  069%=      5-min Rain = 0
KPD3 210351Z 01002KT 20/14 A297 RMK A01 T02010143  RH  070%=      5-min Rain = 0
KPD3 210352Z 00002KT 20/14 A2971 RMK A01 T02000144  RH  070%=      5-min Rain = 0
KPD3 210353Z 01002KT 20/15 A2971 RMK A01 T01990145  RH  071%=      5-min Rain = 0
KPD3 210354Z 01002KT 20/15 A2971 RMK A01 T01990145  RH  071%=      5-min Rain = 0
KPD3 210355Z 02002KT 20/15 A2971 RMK A01 T01980146  RH  072%=      5-min Rain = 0
KPD3 210356Z 01002KT 20/15 A2971 RMK A01 T01970145  RH  072%=      5-min Rain = 0
KPD3 210357Z 02004KT 20/15 A2971 RMK A01 T01970146  RH  073%=      5-min Rain = 0
KPD3 210358Z 02004KT 20/15 A2971 RMK A01 T01960146  RH  073%=      5-min Rain = 0
KPD3 210359Z 03004KT 20/14 A2971 RMK A01 T01970143  RH  071%=      5-min Rain = 0
KPD3 210400Z 04004KT 20/14 A2971 RMK A01 T01990142  RH  070%=      5-min Rain = 0
KPD3 210401Z 05004KT 20/14 A2971 RMK A01 T02010142  RH  069%=      5-min Rain = 0
KPD3 210402Z 06004KT 20/14 A2971 RMK A01 T02020142  RH  068%=      5-min Rain = 0
KPD3 210403Z 05004KT 20/14 A2971 RMK A01 T02030142  RH  068%=      5-min Rain = 0
KPD3 210404Z 06004KT 20/14 A2971 RMK A01 T02040141  RH  067%=      5-min Rain = 0
KPD3 210405Z 07004KT 21/14 A2971 RMK A01 T02050141  RH  067%=      5-min Rain = 0
KPD3 210406Z 06004KT 21/14 A2971 RMK A01 T02060139  RH  065%=      5-min Rain = 0
KPD3 210407Z 05004KT 21/14 A2971 RMK A01 T02080140  RH  065%=      5-min Rain = 0
KPD3 210408Z 05003KT 21/14 A2971 RMK A01 T02090140  RH  064%=      5-min Rain = 0
KPD3 210409Z 04002KT 21/14 A2971 RMK A01 T02090139  RH  064%=      5-min Rain = 0
KPD3 210410Z 05002KT 21/14 A2971 RMK A01 T02100139  RH  064%=      5-min Rain = 0
KPD3 210411Z 07002KT 21/14 A2971 RMK A01 T02110139  RH  064%=      5-min Rain = 0
KPD3 210412Z 07001KT 21/14 A2971 RMK A01 T02110139  RH  064%=      5-min Rain = 0
KPD3 210413Z 08000KT 21/14 A2971 RMK A01 T02110139  RH  064%=      5-min Rain = 0
KPD3 210414Z 10000KT 21/14 A2971 RMK A01 T02100141  RH  064%=      5-min Rain = 0
KPD3 210415Z 11000KT 21/14 A2971 RMK A01 T02100138  RH  063%=      5-min Rain = 0
KPD3 210416Z 13001KT 21/14 A2971 RMK A01 T02110137  RH  062%=      5-min Rain = 0
KPD3 210417Z 15001KT 21/14 A2971 RMK A01 T02120138  RH  063%=      5-min Rain = 0
KPD3 210418Z 17000KT 21/14 A2971 RMK A01 T02120139  RH  063%=      5-min Rain = 0
KPD3 210419Z 00000KT 21/14 A2971 RMK A01 T02110137  RH  063%=      5-min Rain = 0
KPD3 210420Z 00000KT 21/14 A2971 RMK A01 T02100136  RH  062%=      5-min Rain = 0
KPD3 210421Z 00000KT 21/14 A2971 RMK A01 T02100139  RH  064%=      5-min Rain = 0
KPD3 210422Z 00000KT 21/14 A2971 RMK A01 T02070138  RH  065%=      5-min Rain = 0
KPD3 210423Z 00000KT 20/14 A2971 RMK A01 T02030138  RH  066%=      5-min Rain = 0
KPD3 210424Z 06000KT 20/14 A2971 RMK A01 T02000138  RH  067%=      5-min Rain = 0
KPD3 210425Z 04001KT 20/14 A2971 RMK A01 T01970139  RH  069%=      5-min Rain = 0
KPD3 210426Z 04001KT 20/14 A2971 RMK A01 T01950140  RH  071%=      5-min Rain = 0
KPD3 210427Z 14000KT 19/14 A2971 RMK A01 T01930139  RH  071%=      5-min Rain = 0
KPD3 210428Z 00000KT 19/14 A2971 RMK A01 T01920138  RH  071%=      5-min Rain = 0
KPD3 210429Z 00000KT 19/14 A2971 RMK A01 T01920140  RH  072%=      5-min Rain = 0
KPD3 210430Z 00000KT 19/14 A2971 RMK A01 T01920139  RH  071%=      5-min Rain = 0
KPD3 210431Z 19001KT 19/14 A2971 RMK A01 T01930135  RH  069%=      5-min Rain = 0
KPD3 210432Z 17002KT 20/14 A2971 RMK A01 T01970138  RH  069%=      5-min Rain = 0
KPD3 210433Z 15001KT 20/14 A2971 RMK A01 T01970141  RH  070%=      5-min Rain = 0
KPD3 210434Z 06002KT 19/14 A2971 RMK A01 T01940143  RH  072%=      5-min Rain = 0
KPD3 210435Z 07002KT 19/14 A2971 RMK A01 T01920142  RH  072%=      5-min Rain = 0
KPD3 210436Z 07002KT 19/14 A2971 RMK A01 T01910140  RH  072%=      5-min Rain = 0
KPD3 210437Z 08003KT 19/14 A2971 RMK A01 T01910138  RH  071%=      5-min Rain = 0
KPD3 210438Z 08003KT 19/14 A2971 RMK A01 T01910137  RH  071%=      5-min Rain = 0
KPD3 210439Z 08004KT 19/14 A2971 RMK A01 T01920137  RH  070%=      5-min Rain = 0
KPD3 210440Z 08005KT 19/14 A2971 RMK A01 T01930138  RH  070%=      5-min Rain = 0
KPD3 210441Z 09005KT 19/14 A2971 RMK A01 T01940137  RH  070%=      5-min Rain = 0
KPD3 210442Z 09004KT 19/14 A2971 RMK A01 T01940136  RH  069%=      5-min Rain = 0
KPD3 210443Z 09004KT 19/14 A2971 RMK A01 T01940136  RH  069%=      5-min Rain = 0
KPD3 210444Z 11004KT 20/13 A2971 RMK A01 T01950134  RH  068%=      5-min Rain = 0
KPD3 210445Z 11004KT 20/13 A2971 RMK A01 T01970132  RH  066%=      5-min Rain = 0
KPD3 210446Z 10004KT 20/13 A2971 RMK A01 T02000132  RH  065%=      5-min Rain = 0
KPD3 210447Z 10004KT 20/13 A2971 RMK A01 T02020131  RH  064%=      5-min Rain = 0
KPD3 210448Z 09004KT 20/13 A2971 RMK A01 T02030132  RH  064%=      5-min Rain = 0
KPD3 210449Z 09003KT 20/14 A2971 RMK A01 T02030136  RH  065%=      5-min Rain = 0
KPD3 210450Z 10002KT 20/14 A2971 RMK A01 T02010135  RH  066%=      5-min Rain = 0
KPD3 210451Z 10001KT 20/13 A2971 RMK A01 T02010130  RH  064%=      5-min Rain = 0
KPD3 210452Z 11001KT 20/13 A2971 RMK A01 T02020132  RH  064%=      5-min Rain = 0
KPD3 210453Z 11001KT 20/13 A2971 RMK A01 T02020133  RH  064%=      5-min Rain = 0
KPD3 210454Z 10001KT 20/13 A2971 RMK A01 T02000134  RH  066%=      5-min Rain = 0
KPD3 210455Z 06001KT 20/13 A2971 RMK A01 T01970134  RH  067%=      5-min Rain = 0
KPD3 210456Z 03001KT 19/13 A2971 RMK A01 T01930133  RH  068%=      5-min Rain = 0
KPD3 210457Z 00001KT 19/13 A2971 RMK A01 T01890132  RH  069%=      5-min Rain = 0
KPD3 210458Z 35001KT 19/13 A2971 RMK A01 T01860131  RH  070%=      5-min Rain = 0
KPD3 210459Z 34001KT 18/13 A2971 RMK A01 T01840131  RH  071%=      5-min Rain = 0

Page generated in 0.0721 seconds.